Time,TemperatureF,DewpointF,PressureIn,WindDirection,WindDirectionDegrees,WindSpeedMPH,WindSpeedGustMPH,Humidity,HourlyPrecipIn,Conditions,Clouds,dailyrainin,SolarRadiationWatts/m^2,SoftwareType,DateUTC
2013-10-22 00:01:00,37.9,24.9,29.90,West,273,7.3,8.0,59,0.00,,,0.00,0.00,VWS V14.01,2013-10-22 04:01:00,
2013-10-22 00:02:00,38.1,25.0,29.90,West,262,9.5,9.5,59,0.00,,,0.00,0.00,VWS V14.01,2013-10-22 04:02:00,
2013-10-22 00:03:00,37.3,23.9,29.89,West,268,6.3,8.1,58,0.00,,,0.00,0.00,VWS V14.01,2013-10-22 04:03:00,
2013-10-22 00:06:00,37.1,24.9,29.90,West,276,5.9,6.4,61,0.00,,,0.00,0.00,VWS V14.01,2013-10-22 04:06:00,
2013-10-22 00:07:00,36.9,24.9,29.90,West,267,5.4,6.1,62,0.00,,,0.00,0.00,VWS V14.01,2013-10-22 04:07:00,
2013-10-22 00:08:00,37.1,25.2,29.90,WNW,283,5.6,6.9,62,0.00,,,0.00,0.00,VWS V14.01,2013-10-22 04:08:00,
2013-10-22 00:09:00,36.5,24.8,29.91,WNW,292,5.2,5.6,62,0.00,,,0.00,0.00,VWS V14.01,2013-10-22 04:09:00,
2013-10-22 00:10:00,37.1,25.5,29.91,WNW,284,6.1,6.1,63,0.00,,,0.00,0.00,VWS V14.01,2013-10-22 04:10:00,
2013-10-22 00:11:00,37.2,24.8,29.90,WNW,285,7.6,9.0,60,0.00,,,0.00,0.00,VWS V14.01,2013-10-22 04:11:00,
2013-10-22 00:12:00,36.7,24.3,29.90,West,259,4.9,7.6,60,0.00,,,0.00,0.00,VWS V14.01,2013-10-22 04:12:00,
2013-10-22 00:14:00,38.3,25.3,29.90,WNW,290,8.7,10.5,59,0.00,,,0.00,0.00,VWS V14.01,2013-10-22 04:14:00,
2013-10-22 00:15:00,37.1,24.4,29.90,West,275,6.8,6.8,60,0.00,,,0.00,0.00,VWS V14.01,2013-10-22 04:15:00,
2013-10-22 00:17:00,37.7,24.8,29.90,WNW,293,8.3,8.3,59,0.00,,,0.00,0.00,VWS V14.01,2013-10-22 04:17:00,
2013-10-22 00:19:00,37.4,24.4,29.90,WNW,283,6.8,8.3,59,0.00,,,0.00,0.12,VWS V14.01,2013-10-22 04:19:00,
2013-10-22 00:20:00,37.2,24.0,29.90,West,272,5.4,6.8,58,0.00,,,0.00,0.00,VWS V14.01,2013-10-22 04:20:00,
2013-10-22 00:21:00,38.1,24.2,29.89,West,279,7.6,10.2,57,0.00,,,0.00,0.00,VWS V14.01,2013-10-22 04:21:00,
2013-10-22 00:24:00,37.6,24.3,29.89,WNW,286,8.5,8.5,58,0.00,,,0.00,0.00,VWS V14.01,2013-10-22 04:24:00,
2013-10-22 00:25:00,37.7,24.5,29.90,WNW,300,6.6,8.5,58,0.00,,,0.00,0.00,VWS V14.01,2013-10-22 04:25:00,
2013-10-22 00:26:00,37.7,24.6,29.90,WNW,284,6.6,6.6,59,0.00,,,0.00,0.00,VWS V14.01,2013-10-22 04:26:00,
2013-10-22 00:28:00,37.6,24.6,29.91,West,279,5.7,7.8,59,0.00,,,0.00,0.00,VWS V14.01,2013-10-22 04:28:00,
2013-10-22 00:29:00,37.9,24.9,29.90,West,280,5.6,5.7,59,0.00,,,0.00,0.00,VWS V14.01,2013-10-22 04:29:00,
2013-10-22 00:30:00,37.9,24.9,29.90,West,277,6.1,6.1,59,0.00,,,0.00,0.00,VWS V14.01,2013-10-22 04:30:00,
2013-10-22 00:31:00,37.9,23.4,29.90,West,277,5.4,6.3,56,0.00,,,0.00,0.00,VWS V14.01,2013-10-22 04:31:00,
2013-10-22 00:32:00,37.9,23.4,29.90,West,277,5.4,6.3,56,0.00,,,0.00,0.00,VWS V14.01,2013-10-22 04:32:00,
2013-10-22 00:33:00,38.2,25.4,29.91,West,267,6.8,6.8,59,0.00,,,0.00,0.00,VWS V14.01,2013-10-22 04:33:00,
2013-10-22 00:34:00,38.3,25.1,29.91,West,273,6.8,6.8,59,0.00,,,0.00,0.43,VWS V14.01,2013-10-22 04:34:00,
2013-10-22 00:35:00,38.1,25.1,29.90,West,259,5.7,5.7,59,0.00,,,0.00,0.00,VWS V14.01,2013-10-22 04:35:00,
2013-10-22 00:37:00,38.3,24.9,29.91,WSW,258,6.8,6.8,58,0.00,,,0.00,0.00,VWS V14.01,2013-10-22 04:37:00,
2013-10-22 00:38:00,38.3,24.9,29.89,WNW,282,6.4,6.4,58,0.00,,,0.00,0.00,VWS V14.01,2013-10-22 04:38:00,
2013-10-22 00:39:00,38.6,25.1,29.90,WNW,286,7.3,7.3,58,0.00,,,0.00,0.00,VWS V14.01,2013-10-22 04:39:00,
2013-10-22 00:41:00,38.8,24.5,29.89,WNW,282,8.3,8.3,56,0.00,,,0.00,0.00,VWS V14.01,2013-10-22 04:41:00,
2013-10-22 00:43:00,38.7,24.4,29.90,West,268,6.8,6.8,56,0.00,,,0.00,0.00,VWS V14.01,2013-10-22 04:43:00,
2013-10-22 00:44:00,38.4,24.2,29.90,WNW,296,5.7,6.4,56,0.00,,,0.00,0.00,VWS V14.01,2013-10-22 04:44:00,
2013-10-22 00:45:00,38.9,24.5,29.90,WNW,300,9.3,9.3,56,0.00,,,0.00,0.00,VWS V14.01,2013-10-22 04:45:00,
2013-10-22 00:48:00,38.8,23.8,29.90,WNW,303,6.8,6.8,54,0.00,,,0.00,0.00,VWS V14.01,2013-10-22 04:48:00,
2013-10-22 00:49:00,39.1,23.9,29.90,WNW,291,6.6,7.1,54,0.00,,,0.00,0.00,VWS V14.01,2013-10-22 04:49:00,
2013-10-22 00:51:00,38.8,23.1,29.90,NW,320,7.3,9.2,53,0.00,,,0.00,0.00,VWS V14.01,2013-10-22 04:51:00,
2013-10-22 00:54:00,39.2,22.2,29.90,NW,317,7.6,9.5,50,0.00,,,0.00,0.00,VWS V14.01,2013-10-22 04:54:00,
2013-10-22 00:55:00,39.4,21.7,29.90,NW,321,9.9,9.9,49,0.00,,,0.00,0.00,VWS V14.01,2013-10-22 04:55:00,
2013-10-22 00:56:00,39.6,20.7,29.90,NW,323,8.7,9.7,46,0.00,,,0.00,0.00,VWS V14.01,2013-10-22 04:56:00,
2013-10-22 00:57:00,39.6,20.4,29.91,NNW,333,9.3,9.3,46,0.00,,,0.00,0.00,VWS V14.01,2013-10-22 04:57:00,
2013-10-22 01:00:00,39.2,20.9,29.90,NW,325,6.4,10.0,48,0.00,,,0.00,0.00,VWS V14.01,2013-10-22 05:00:00,
2013-10-22 01:01:00,39.7,21.0,29.90,WNW,293,9.0,9.0,47,0.00,,,0.00,0.00,VWS V14.01,2013-10-22 05:01:00,
2013-10-22 01:02:00,39.8,20.4,29.90,NW,311,12.4,12.4,45,0.00,,,0.00,0.00,VWS V14.01,2013-10-22 05:02:00,
2013-10-22 01:06:00,39.3,17.8,29.90,NW,305,12.3,12.6,41,0.00,,,0.00,0.00,VWS V14.01,2013-10-22 05:06:00,
2013-10-22 01:07:00,40.0,18.5,29.90,WNW,297,15.5,15.5,42,0.00,,,0.00,0.00,VWS V14.01,2013-10-22 05:07:00,
2013-10-22 01:10:00,39.8,17.9,29.95,NW,321,15.3,15.5,41,0.00,,,0.00,0.12,VWS V14.01,2013-10-22 05:10:00,
2013-10-22 01:12:00,39.5,17.8,29.89,West,273,12.1,15.5,41,0.00,,,0.00,0.00,VWS V14.01,2013-10-22 05:12:00,
2013-10-22 01:13:00,39.4,17.7,29.90,WNW,301,11.6,15.5,41,0.00,,,0.00,0.00,VWS V14.01,2013-10-22 05:13:00,
2013-10-22 01:16:00,39.6,17.6,29.89,NW,322,15.0,16.4,40,0.00,,,0.00,0.00,VWS V14.01,2013-10-22 05:16:00,
2013-10-22 01:17:00,38.9,17.3,29.90,NW,311,11.1,16.4,41,0.00,,,0.00,0.00,VWS V14.01,2013-10-22 05:17:00,
2013-10-22 01:18:00,38.9,17.3,29.90,NW,311,11.1,16.4,41,0.00,,,0.00,0.00,VWS V14.01,2013-10-22 05:18:00,
2013-10-22 01:19:00,38.9,17.7,29.90,NW,308,9.5,16.4,42,0.00,,,0.00,0.00,VWS V14.01,2013-10-22 05:19:00,
2013-10-22 01:23:00,38.7,17.9,29.90,WNW,283,9.5,16.7,43,0.00,,,0.00,0.00,VWS V14.01,2013-10-22 05:23:00,
2013-10-22 01:24:00,38.3,18.0,29.90,WNW,298,7.8,16.7,43,0.00,,,0.00,0.00,VWS V14.01,2013-10-22 05:24:00,
2013-10-22 01:25:00,38.0,18.1,29.90,NW,315,9.7,16.7,44,0.00,,,0.00,0.00,VWS V14.01,2013-10-22 05:25:00,
2013-10-22 01:26:00,38.4,18.3,29.90,NW,306,7.1,16.7,44,0.00,,,0.00,0.00,VWS V14.01,2013-10-22 05:26:00,
2013-10-22 01:29:00,38.1,17.8,29.90,WNW,296,9.0,16.7,43,0.00,,,0.00,0.00,VWS V14.01,2013-10-22 05:29:00,
2013-10-22 01:31:00,38.3,18.2,29.90,NW,312,8.0,16.7,44,0.00,,,0.00,0.00,VWS V14.01,2013-10-22 05:31:00,
2013-10-22 01:32:00,38.5,14.1,29.90,WNW,294,9.2,16.7,36,0.00,,,0.00,0.43,VWS V14.01,2013-10-22 05:32:00,
2013-10-22 01:35:00,38.2,15.8,29.90,WNW,294,9.7,16.7,40,0.00,,,0.00,0.12,VWS V14.01,2013-10-22 05:35:00,
2013-10-22 01:36:00,37.5,18.1,29.90,NW,309,6.6,16.7,45,0.00,,,0.00,0.00,VWS V14.01,2013-10-22 05:36:00,
2013-10-22 01:37:00,37.5,18.1,29.90,NW,309,6.6,16.7,45,0.00,,,0.00,0.00,VWS V14.01,2013-10-22 05:37:00,
2013-10-22 01:38:00,38.1,18.6,29.90,WNW,299,10.7,16.7,45,0.00,,,0.00,0.00,VWS V14.01,2013-10-22 05:38:00,
2013-10-22 01:41:00,38.8,19.1,29.90,WNW,289,10.5,16.7,45,0.00,,,0.00,0.00,VWS V14.01,2013-10-22 05:41:00,
2013-10-22 01:42:00,38.8,19.1,29.90,WNW,289,10.5,16.7,45,0.00,,,0.00,0.00,VWS V14.01,2013-10-22 05:42:00,
2013-10-22 01:43:00,38.0,19.0,29.90,NNW,330,8.1,16.7,46,0.00,,,0.00,0.12,VWS V14.01,2013-10-22 05:43:00,
2013-10-22 01:44:00,37.7,18.8,29.90,West,280,7.6,16.7,46,0.00,,,0.00,0.06,VWS V14.01,2013-10-22 05:44:00,
2013-10-22 01:47:00,37.9,19.1,29.90,WNW,290,7.6,16.7,46,0.00,,,0.00,0.00,VWS V14.01,2013-10-22 05:47:00,
2013-10-22 01:48:00,37.8,19.6,29.90,WNW,303,6.9,16.7,48,0.00,,,0.00,0.00,VWS V14.01,2013-10-22 05:48:00,
2013-10-22 01:49:00,36.9,18.9,29.91,WNW,294,7.5,16.7,48,0.00,,,0.00,0.00,VWS V14.01,2013-10-22 05:49:00,
2013-10-22 01:51:00,38.0,19.4,29.91,WNW,284,9.9,16.7,47,0.00,,,0.00,0.43,VWS V14.01,2013-10-22 05:51:00,
2013-10-22 01:53:00,38.5,19.9,29.90,WNW,299,10.2,16.7,47,0.00,,,0.00,0.00,VWS V14.01,2013-10-22 05:53:00,
2013-10-22 01:54:00,38.3,19.8,29.91,West,278,8.0,16.7,47,0.00,,,0.00,0.00,VWS V14.01,2013-10-22 05:54:00,
2013-10-22 01:55:00,37.8,19.5,29.90,WNW,296,9.5,16.7,47,0.00,,,0.00,0.00,VWS V14.01,2013-10-22 05:55:00,
2013-10-22 01:58:00,37.7,19.1,29.90,West,280,8.1,16.7,47,0.00,,,0.00,0.00,VWS V14.01,2013-10-22 05:58:00,
2013-10-22 01:59:00,37.7,19.3,29.90,WNW,300,7.8,16.7,47,0.00,,,0.00,0.00,VWS V14.01,2013-10-22 05:59:00,
2013-10-22 02:00:00,37.8,19.4,29.90,WNW,292,9.5,16.7,47,0.00,,,0.00,0.00,VWS V14.01,2013-10-22 06:00:00,
2013-10-22 02:01:00,37.8,19.6,29.90,WNW,284,8.7,16.7,47,0.00,,,0.00,0.00,VWS V14.01,2013-10-22 06:01:00,
2013-10-22 02:02:00,37.9,20.0,29.90,WNW,296,7.3,16.7,48,0.00,,,0.00,0.00,VWS V14.01,2013-10-22 06:02:00,
2013-10-22 02:03:00,37.2,19.7,29.90,West,281,5.9,16.7,49,0.00,,,0.00,0.00,VWS V14.01,2013-10-22 06:03:00,
2013-10-22 02:04:00,37.1,19.9,29.90,West,271,6.4,16.7,49,0.00,,,0.00,0.00,VWS V14.01,2013-10-22 06:04:00,
2013-10-22 02:06:00,38.5,21.4,29.91,WNW,289,9.9,16.7,50,0.00,,,0.00,0.00,VWS V14.01,2013-10-22 06:06:00,
2013-10-22 02:08:00,37.2,20.5,29.91,West,276,7.1,16.7,50,0.00,,,0.00,0.00,VWS V14.01,2013-10-22 06:08:00,
2013-10-22 02:09:00,36.5,20.1,29.91,West,274,5.7,16.7,51,0.00,,,0.00,0.00,VWS V14.01,2013-10-22 06:09:00,
2013-10-22 02:10:00,36.8,20.7,29.91,WSW,257,6.3,16.7,52,0.00,,,0.00,0.00,VWS V14.01,2013-10-22 06:10:00,
2013-10-22 02:11:00,36.3,20.8,29.91,WSW,258,6.1,16.7,53,0.00,,,0.00,0.00,VWS V14.01,2013-10-22 06:11:00,
2013-10-22 02:13:00,36.1,21.2,29.90,West,268,5.4,16.7,54,0.00,,,0.00,0.00,VWS V14.01,2013-10-22 06:13:00,
2013-10-22 02:14:00,36.1,21.2,29.91,WSW,257,5.2,16.7,54,0.00,,,0.00,0.00,VWS V14.01,2013-10-22 06:14:00,
2013-10-22 02:15:00,36.3,21.5,29.91,WSW,252,5.6,16.7,54,0.00,,,0.00,0.00,VWS V14.01,2013-10-22 06:15:00,
2013-10-22 02:16:00,36.3,21.5,29.91,WSW,252,5.6,16.7,54,0.00,,,0.00,0.00,VWS V14.01,2013-10-22 06:16:00,
2013-10-22 02:18:00,36.0,21.2,29.90,West,277,5.4,16.7,54,0.00,,,0.00,0.00,VWS V14.01,2013-10-22 06:18:00,
2013-10-22 02:19:00,35.6,21.3,29.91,West,268,5.2,16.7,55,0.00,,,0.00,0.00,VWS V14.01,2013-10-22 06:19:00,
2013-10-22 02:20:00,36.0,21.8,29.91,West,281,4.9,16.7,56,0.00,,,0.00,0.00,VWS V14.01,2013-10-22 06:20:00,
2013-10-22 02:21:00,36.0,21.8,29.91,West,281,4.9,16.7,56,0.00,,,0.00,0.00,VWS V14.01,2013-10-22 06:21:00,
2013-10-22 02:22:00,35.1,21.2,29.91,West,280,3.9,16.7,57,0.00,,,0.00,0.73,VWS V14.01,2013-10-22 06:22:00,
2013-10-22 02:23:00,36.1,22.2,29.91,West,268,5.2,16.7,57,0.00,,,0.00,0.43,VWS V14.01,2013-10-22 06:23:00,
2013-10-22 02:25:00,35.2,21.6,29.92,West,266,5.6,16.7,57,0.00,,,0.00,0.00,VWS V14.01,2013-10-22 06:25:00,
2013-10-22 02:26:00,35.9,22.4,29.91,West,259,6.1,16.7,58,0.00,,,0.00,0.00,VWS V14.01,2013-10-22 06:26:00,
2013-10-22 02:27:00,35.3,22.1,29.92,West,270,5.7,16.7,58,0.00,,,0.00,0.00,VWS V14.01,2013-10-22 06:27:00,
2013-10-22 02:28:00,35.5,22.4,29.92,WSW,258,5.9,16.7,58,0.00,,,0.00,0.00,VWS V14.01,2013-10-22 06:28:00,
2013-10-22 02:29:00,35.5,22.5,29.91,West,261,5.9,16.7,59,0.00,,,0.00,0.00,VWS V14.01,2013-10-22 06:29:00,
2013-10-22 02:30:00,35.5,22.7,29.91,WNW,284,5.7,16.7,59,0.00,,,0.00,0.00,VWS V14.01,2013-10-22 06:30:00,
2013-10-22 02:31:00,35.3,22.6,29.91,West,271,6.1,16.7,59,0.00,,,0.00,0.43,VWS V14.01,2013-10-22 06:31:00,
2013-10-22 02:33:00,35.6,23.0,29.91,WSW,246,4.9,16.7,60,0.00,,,0.00,0.00,VWS V14.01,2013-10-22 06:33:00,
2013-10-22 02:35:00,35.2,22.6,29.90,WSW,241,6.1,16.7,60,0.00,,,0.00,0.00,VWS V14.01,2013-10-22 06:35:00,
2013-10-22 02:36:00,35.1,22.6,29.91,WSW,243,5.1,16.7,60,0.00,,,0.00,0.67,VWS V14.01,2013-10-22 06:36:00,
2013-10-22 02:37:00,35.1,22.8,29.91,SW,236,5.4,16.7,60,0.00,,,0.00,0.12,VWS V14.01,2013-10-22 06:37:00,
2013-10-22 02:38:00,35.3,23.6,29.91,WSW,245,5.6,16.7,62,0.00,,,0.00,0.00,VWS V14.01,2013-10-22 06:38:00,
2013-10-22 02:40:00,34.5,23.3,29.91,WSW,247,4.5,16.7,63,0.00,,,0.00,0.00,VWS V14.01,2013-10-22 06:40:00,
2013-10-22 02:41:00,34.5,23.6,29.91,WSW,257,6.3,16.7,64,0.00,,,0.00,0.00,VWS V14.01,2013-10-22 06:41:00,
2013-10-22 02:42:00,34.5,23.6,29.91,WSW,257,6.3,16.7,64,0.00,,,0.00,0.00,VWS V14.01,2013-10-22 06:42:00,
2013-10-22 02:44:00,34.8,24.5,29.91,WSW,246,5.7,16.7,66,0.00,,,0.00,0.00,VWS V14.01,2013-10-22 06:44:00,
2013-10-22 02:46:00,34.6,24.7,29.91,WSW,251,4.4,16.7,67,0.00,,,0.00,0.00,VWS V14.01,2013-10-22 06:46:00,
2013-10-22 02:47:00,34.4,24.6,29.92,West,261,4.7,16.7,67,0.00,,,0.00,0.00,VWS V14.01,2013-10-22 06:47:00,
2013-10-22 02:48:00,34.4,24.8,29.92,WSW,255,4.9,16.7,67,0.00,,,0.00,0.00,VWS V14.01,2013-10-22 06:48:00,
2013-10-22 02:52:00,34.6,25.7,29.91,West,260,4.7,16.7,70,0.00,,,0.00,0.00,VWS V14.01,2013-10-22 06:52:00,
2013-10-22 02:53:00,33.7,25.1,29.91,WSW,252,4.7,16.7,70,0.00,,,0.00,0.43,VWS V14.01,2013-10-22 06:53:00,
2013-10-22 02:54:00,34.1,25.6,29.92,WSW,238,5.1,16.7,71,0.00,,,0.00,0.00,VWS V14.01,2013-10-22 06:54:00,
2013-10-22 02:55:00,34.7,26.3,29.96,WSW,256,5.4,16.7,71,0.00,,,0.00,0.00,VWS V14.01,2013-10-22 06:55:00,
2013-10-22 02:56:00,34.8,26.3,29.92,WSW,258,6.8,16.7,71,0.00,,,0.00,0.00,VWS V14.01,2013-10-22 06:56:00,
2013-10-22 02:57:00,34.3,25.8,29.92,WSW,248,5.2,16.7,71,0.00,,,0.00,0.06,VWS V14.01,2013-10-22 06:57:00,
2013-10-22 02:59:00,35.1,26.5,29.92,WSW,250,7.6,16.7,71,0.00,,,0.00,0.00,VWS V14.01,2013-10-22 06:59:00,
2013-10-22 03:01:00,34.4,25.6,29.92,WSW,238,6.3,16.7,70,0.00,,,0.00,0.00,VWS V14.01,2013-10-22 07:01:00,
2013-10-22 03:02:00,34.8,26.0,29.92,SW,235,6.6,16.7,70,0.00,,,0.00,0.00,VWS V14.01,2013-10-22 07:02:00,
2013-10-22 03:03:00,34.7,25.8,29.92,WSW,240,6.4,6.4,70,0.00,,,0.00,0.00,VWS V14.01,2013-10-22 07:03:00,
2013-10-22 03:05:00,34.0,25.1,29.93,SW,236,5.4,5.4,70,0.00,,,0.00,0.43,VWS V14.01,2013-10-22 07:05:00,
2013-10-22 03:06:00,33.9,25.4,29.92,WSW,242,4.9,4.9,71,0.00,,,0.00,0.73,VWS V14.01,2013-10-22 07:06:00,
2013-10-22 03:07:00,34.4,26.0,29.92,WSW,242,4.9,4.9,71,0.00,,,0.00,0.00,VWS V14.01,2013-10-22 07:07:00,
2013-10-22 03:09:00,34.0,25.9,29.92,WSW,241,4.9,5.2,72,0.00,,,0.00,0.43,VWS V14.01,2013-10-22 07:09:00,
2013-10-22 03:12:00,34.0,25.9,29.92,WSW,252,4.4,4.9,72,0.00,,,0.00,0.00,VWS V14.01,2013-10-22 07:12:00,
2013-10-22 03:13:00,33.8,25.8,29.92,West,259,4.5,4.9,72,0.00,,,0.00,0.00,VWS V14.01,2013-10-22 07:13:00,
2013-10-22 03:14:00,34.1,26.3,29.93,West,265,6.9,6.9,73,0.00,,,0.00,0.00,VWS V14.01,2013-10-22 07:14:00,
2013-10-22 03:16:00,34.0,26.0,29.92,West,261,6.4,6.6,72,0.00,,,0.00,0.00,VWS V14.01,2013-10-22 07:16:00,
2013-10-22 03:17:00,34.1,26.1,29.92,West,262,5.9,5.9,72,0.00,,,0.00,0.00,VWS V14.01,2013-10-22 07:17:00,
2013-10-22 03:18:00,33.7,25.7,29.92,West,267,6.4,6.4,72,0.00,,,0.00,0.00,VWS V14.01,2013-10-22 07:18:00,
2013-10-22 03:20:00,34.2,26.5,29.93,West,262,4.5,5.7,73,0.00,,,0.00,0.00,VWS V14.01,2013-10-22 07:20:00,
2013-10-22 03:22:00,33.8,26.1,29.93,WSW,257,4.5,4.5,73,0.00,,,0.00,0.00,VWS V14.01,2013-10-22 07:22:00,
2013-10-22 03:23:00,33.6,25.9,29.92,West,263,5.1,5.1,73,0.00,,,0.00,0.00,VWS V14.01,2013-10-22 07:23:00,
2013-10-22 03:25:00,33.8,26.3,29.93,West,267,4.7,4.7,74,0.00,,,0.00,0.00,VWS V14.01,2013-10-22 07:25:00,
2013-10-22 03:26:00,34.0,26.5,29.92,WSW,257,6.6,6.6,74,0.00,,,0.00,0.00,VWS V14.01,2013-10-22 07:26:00,
2013-10-22 03:27:00,34.3,26.6,29.93,WSW,253,6.1,6.1,73,0.00,,,0.00,0.00,VWS V14.01,2013-10-22 07:27:00,
2013-10-22 03:28:00,33.9,25.3,29.93,WSW,254,5.6,5.7,70,0.00,,,0.00,0.00,VWS V14.01,2013-10-22 07:28:00,
2013-10-22 03:30:00,33.4,25.8,29.93,WSW,247,4.9,5.6,73,0.00,,,0.00,0.00,VWS V14.01,2013-10-22 07:30:00,
2013-10-22 03:31:00,33.3,25.7,29.93,West,263,5.1,5.6,73,0.00,,,0.00,0.00,VWS V14.01,2013-10-22 07:31:00,
2013-10-22 03:32:00,33.4,26.0,29.92,West,276,5.7,5.7,74,0.00,,,0.00,0.00,VWS V14.01,2013-10-22 07:32:00,
2013-10-22 03:33:00,33.7,26.3,29.92,WSW,250,5.6,5.6,74,0.00,,,0.00,0.37,VWS V14.01,2013-10-22 07:33:00,
2013-10-22 03:34:00,33.2,25.8,29.92,WSW,257,4.5,5.6,74,0.00,,,0.00,0.00,VWS V14.01,2013-10-22 07:34:00,
2013-10-22 03:36:00,33.5,26.3,29.93,West,262,4.7,4.7,74,0.00,,,0.00,0.00,VWS V14.01,2013-10-22 07:36:00,
2013-10-22 03:37:00,33.5,26.2,29.93,WSW,254,4.7,4.7,74,0.00,,,0.00,0.00,VWS V14.01,2013-10-22 07:37:00,
2013-10-22 03:38:00,33.1,26.0,29.93,WSW,253,4.7,4.7,75,0.00,,,0.00,0.00,VWS V14.01,2013-10-22 07:38:00,
2013-10-22 03:40:00,33.3,26.3,29.98,West,261,5.4,5.4,75,0.00,,,0.00,0.00,VWS V14.01,2013-10-22 07:40:00,
2013-10-22 03:41:00,32.3,25.4,29.93,West,260,4.2,4.2,75,0.00,,,0.00,0.00,VWS V14.01,2013-10-22 07:41:00,
2013-10-22 03:42:00,32.5,25.9,29.93,WSW,258,5.2,5.2,76,0.00,,,0.00,0.00,VWS V14.01,2013-10-22 07:42:00,
2013-10-22 03:43:00,32.9,26.4,29.93,West,267,4.9,5.1,77,0.00,,,0.00,0.00,VWS V14.01,2013-10-22 07:43:00,
2013-10-22 03:45:00,32.5,26.2,29.92,WSW,256,4.9,5.2,78,0.00,,,0.00,0.00,VWS V14.01,2013-10-22 07:45:00,
2013-10-22 03:46:00,32.5,26.2,29.92,WSW,256,4.7,4.9,78,0.00,,,0.00,0.00,VWS V14.01,2013-10-22 07:46:00,
2013-10-22 03:48:00,32.3,26.3,29.93,WSW,243,4.7,4.7,78,0.00,,,0.00,0.00,VWS V14.01,2013-10-22 07:48:00,
2013-10-22 03:50:00,32.2,26.3,29.93,WSW,244,5.2,5.2,79,0.00,,,0.00,0.00,VWS V14.01,2013-10-22 07:50:00,
2013-10-22 03:51:00,31.9,26.0,29.93,WSW,242,4.7,5.2,79,0.00,,,0.00,0.00,VWS V14.01,2013-10-22 07:51:00,
2013-10-22 03:52:00,31.9,26.0,29.93,WSW,242,4.7,5.2,79,0.00,,,0.00,0.00,VWS V14.01,2013-10-22 07:52:00,
2013-10-22 03:53:00,31.5,25.9,29.93,WSW,240,4.2,4.4,79,0.00,,,0.00,0.00,VWS V14.01,2013-10-22 07:53:00,
2013-10-22 03:54:00,31.5,26.0,29.93,WSW,238,4.0,4.4,80,0.00,,,0.00,0.00,VWS V14.01,2013-10-22 07:54:00,
2013-10-22 03:55:00,31.4,26.1,29.97,WSW,244,3.9,4.0,80,0.00,,,0.00,0.00,VWS V14.01,2013-10-22 07:55:00,
2013-10-22 03:56:00,31.3,26.1,29.93,WSW,240,4.0,4.0,81,0.00,,,0.00,0.00,VWS V14.01,2013-10-22 07:56:00,
2013-10-22 03:59:00,31.6,26.8,29.93,SW,234,5.1,5.1,82,0.00,,,0.00,0.00,VWS V14.01,2013-10-22 07:59:00,
2013-10-22 04:00:00,32.4,26.9,29.93,WSW,245,5.7,5.7,80,0.00,,,0.00,0.00,VWS V14.01,2013-10-22 08:00:00,
2013-10-22 04:02:00,31.6,26.9,29.93,WSW,242,4.7,4.7,83,0.00,,,0.00,0.00,VWS V14.01,2013-10-22 08:02:00,
2013-10-22 04:03:00,31.3,25.1,29.93,WSW,251,4.2,5.1,78,0.00,,,0.00,0.00,VWS V14.01,2013-10-22 08:03:00,
2013-10-22 04:04:00,31.3,25.1,29.93,WSW,251,4.2,5.1,78,0.00,,,0.00,0.00,VWS V14.01,2013-10-22 08:04:00,
2013-10-22 04:05:00,31.3,26.8,29.93,WSW,240,4.7,5.1,83,0.00,,,0.00,0.00,VWS V14.01,2013-10-22 08:05:00,
2013-10-22 04:06:00,31.6,27.1,29.93,WSW,242,5.4,5.4,83,0.00,,,0.00,0.00,VWS V14.01,2013-10-22 08:06:00,
2013-10-22 04:08:00,31.4,26.8,29.93,WSW,245,4.5,5.4,83,0.00,,,0.00,0.00,VWS V14.01,2013-10-22 08:08:00,
2013-10-22 04:09:00,31.5,27.0,29.93,WSW,241,4.7,5.4,83,0.00,,,0.00,0.00,VWS V14.01,2013-10-22 08:09:00,
2013-10-22 04:10:00,32.0,27.5,29.94,WSW,248,5.2,5.4,83,0.00,,,0.00,0.00,VWS V14.01,2013-10-22 08:10:00,
2013-10-22 04:11:00,31.9,27.5,29.93,WSW,245,5.4,5.4,83,0.00,,,0.00,0.00,VWS V14.01,2013-10-22 08:11:00,
2013-10-22 04:12:00,31.1,26.6,29.93,WSW,247,5.9,5.9,83,0.00,,,0.00,0.00,VWS V14.01,2013-10-22 08:12:00,
2013-10-22 04:15:00,31.9,27.2,29.93,West,267,4.9,6.1,83,0.00,,,0.00,0.00,VWS V14.01,2013-10-22 08:15:00,
2013-10-22 04:16:00,31.8,27.2,29.93,WSW,249,5.4,6.1,83,0.00,,,0.00,0.12,VWS V14.01,2013-10-22 08:16:00,
2013-10-22 04:17:00,31.0,26.3,29.93,West,268,3.7,6.1,82,0.00,,,0.00,0.00,VWS V14.01,2013-10-22 08:17:00,
2013-10-22 04:19:00,31.7,27.2,29.93,WSW,249,5.2,6.1,83,0.00,,,0.00,0.00,VWS V14.01,2013-10-22 08:19:00,
2013-10-22 04:20:00,31.7,27.2,29.93,WSW,253,5.9,6.1,83,0.00,,,0.00,0.00,VWS V14.01,2013-10-22 08:20:00,
2013-10-22 04:21:00,31.6,24.2,29.93,WSW,253,4.7,6.1,74,0.00,,,0.00,0.12,VWS V14.01,2013-10-22 08:21:00,
2013-10-22 04:22:00,31.2,26.6,29.93,WSW,254,3.9,6.1,83,0.00,,,0.00,0.00,VWS V14.01,2013-10-22 08:22:00,
2013-10-22 04:23:00,31.0,26.5,29.93,West,259,4.2,6.1,83,0.00,,,0.00,0.73,VWS V14.01,2013-10-22 08:23:00,
2013-10-22 04:25:00,31.5,26.9,29.94,WSW,255,5.6,6.8,83,0.00,,,0.00,0.00,VWS V14.01,2013-10-22 08:25:00,
2013-10-22 04:27:00,31.9,27.2,29.94,WSW,251,4.5,6.8,83,0.00,,,0.00,0.00,VWS V14.01,2013-10-22 08:27:00,
2013-10-22 04:28:00,32.0,27.4,29.94,WSW,255,5.2,6.8,83,0.00,,,0.00,0.00,VWS V14.01,2013-10-22 08:28:00,
2013-10-22 04:33:00,31.2,26.7,29.94,WSW,254,4.5,6.8,83,0.00,,,0.00,0.73,VWS V14.01,2013-10-22 08:33:00,
2013-10-22 04:34:00,31.2,26.7,29.94,WSW,251,4.2,6.8,83,0.00,,,0.00,0.00,VWS V14.01,2013-10-22 08:34:00,
2013-10-22 04:35:00,31.4,26.9,29.93,WSW,246,5.4,6.8,83,0.00,,,0.00,0.00,VWS V14.01,2013-10-22 08:35:00,
2013-10-22 04:36:00,31.5,27.0,29.94,SW,230,4.5,6.8,83,0.00,,,0.00,0.43,VWS V14.01,2013-10-22 08:36:00,
2013-10-22 04:39:00,31.0,26.5,29.93,SW,228,6.4,6.8,83,0.00,,,0.00,0.00,VWS V14.01,2013-10-22 08:39:00,
2013-10-22 04:40:00,31.0,26.5,29.93,SW,228,6.4,6.8,83,0.00,,,0.00,0.00,VWS V14.01,2013-10-22 08:40:00,
2013-10-22 04:41:00,30.7,26.3,29.93,SW,234,4.0,6.8,83,0.00,,,0.00,0.00,VWS V14.01,2013-10-22 08:41:00,
2013-10-22 04:44:00,30.9,26.9,29.94,WSW,240,4.5,6.8,85,0.00,,,0.00,0.00,VWS V14.01,2013-10-22 08:44:00,
2013-10-22 04:45:00,30.9,26.8,29.94,WSW,244,4.5,6.8,85,0.00,,,0.00,0.00,VWS V14.01,2013-10-22 08:45:00,
2013-10-22 04:46:00,31.3,27.3,29.93,WSW,246,6.9,6.9,85,0.00,,,0.00,0.00,VWS V14.01,2013-10-22 08:46:00,
2013-10-22 04:47:00,31.0,26.9,29.94,WSW,241,5.4,6.9,85,0.00,,,0.00,0.00,VWS V14.01,2013-10-22 08:47:00,
2013-10-22 04:49:00,31.3,27.2,29.94,WSW,252,5.4,6.9,85,0.00,,,0.00,0.00,VWS V14.01,2013-10-22 08:49:00,
2013-10-22 04:50:00,31.3,27.2,29.93,SW,228,4.5,6.9,85,0.00,,,0.00,0.00,VWS V14.01,2013-10-22 08:50:00,
2013-10-22 04:52:00,31.6,27.5,29.94,WSW,245,5.7,6.9,84,0.00,,,0.00,0.00,VWS V14.01,2013-10-22 08:52:00,
2013-10-22 04:55:00,30.9,25.3,29.94,WSW,244,4.7,6.9,80,0.00,,,0.00,0.00,VWS V14.01,2013-10-22 08:55:00,
2013-10-22 04:57:00,30.7,26.4,29.94,WSW,237,3.9,6.9,84,0.00,,,0.00,0.12,VWS V14.01,2013-10-22 08:57:00,
2013-10-22 04:58:00,30.7,26.5,29.94,WSW,254,4.9,6.9,84,0.00,,,0.00,0.00,VWS V14.01,2013-10-22 08:58:00,
2013-10-22 04:59:00,30.7,26.5,29.93,West,260,4.9,7.3,84,0.00,,,0.00,0.00,VWS V14.01,2013-10-22 08:59:00,
2013-10-22 05:02:00,31.0,26.7,29.94,WSW,242,4.7,7.3,84,0.00,,,0.00,0.00,VWS V14.01,2013-10-22 09:02:00,
2013-10-22 05:03:00,31.0,26.8,29.94,WSW,249,4.9,4.9,84,0.00,,,0.00,0.73,VWS V14.01,2013-10-22 09:03:00,
2013-10-22 05:04:00,30.4,26.2,29.95,WSW,251,5.2,5.2,84,0.00,,,0.00,0.00,VWS V14.01,2013-10-22 09:04:00,
2013-10-22 05:07:00,30.6,26.4,29.94,WSW,257,4.7,5.9,84,0.00,,,0.00,0.00,VWS V14.01,2013-10-22 09:07:00,
2013-10-22 05:08:00,30.6,26.4,29.94,WSW,237,5.1,5.1,84,0.00,,,0.00,0.12,VWS V14.01,2013-10-22 09:08:00,
2013-10-22 05:10:00,30.5,26.3,29.94,WSW,242,5.9,5.9,84,0.00,,,0.00,0.00,VWS V14.01,2013-10-22 09:10:00,
2013-10-22 05:13:00,30.5,26.5,29.94,WSW,246,5.9,5.9,85,0.00,,,0.00,0.00,VWS V14.01,2013-10-22 09:13:00,
2013-10-22 05:14:00,30.4,26.3,29.94,WSW,255,4.7,5.9,85,0.00,,,0.00,0.00,VWS V14.01,2013-10-22 09:14:00,
2013-10-22 05:15:00,30.2,26.1,29.94,WSW,238,3.5,4.7,85,0.00,,,0.00,0.00,VWS V14.01,2013-10-22 09:15:00,
2013-10-22 05:16:00,30.5,26.5,29.94,WSW,248,4.7,4.7,85,0.00,,,0.00,0.00,VWS V14.01,2013-10-22 09:16:00,
2013-10-22 05:17:00,30.0,26.0,29.94,WSW,249,5.2,5.2,85,0.00,,,0.00,0.00,VWS V14.01,2013-10-22 09:17:00,
2013-10-22 05:18:00,30.5,26.6,29.95,WSW,256,6.1,6.1,85,0.00,,,0.00,0.00,VWS V14.01,2013-10-22 09:18:00,
2013-10-22 05:19:00,30.5,26.7,29.95,WSW,238,6.9,6.9,86,0.00,,,0.00,0.00,VWS V14.01,2013-10-22 09:19:00,
2013-10-22 05:20:00,30.5,26.7,29.94,WSW,249,5.6,6.9,86,0.00,,,0.00,0.00,VWS V14.01,2013-10-22 09:20:00,
2013-10-22 05:21:00,30.7,25.9,29.94,WSW,242,6.1,6.1,82,0.00,,,0.00,0.00,VWS V14.01,2013-10-22 09:21:00,
2013-10-22 05:22:00,30.3,26.4,29.95,WSW,250,5.6,6.1,85,0.00,,,0.00,0.00,VWS V14.01,2013-10-22 09:22:00,
2013-10-22 05:23:00,30.3,26.4,29.95,WSW,250,5.6,6.1,85,0.00,,,0.00,0.00,VWS V14.01,2013-10-22 09:23:00,
2013-10-22 05:24:00,30.2,26.4,29.94,WSW,247,5.7,5.7,85,0.00,,,0.00,0.43,VWS V14.01,2013-10-22 09:24:00,
2013-10-22 05:26:00,30.4,26.5,29.94,WSW,253,4.7,5.1,85,0.00,,,0.00,0.00,VWS V14.01,2013-10-22 09:26:00,
2013-10-22 05:28:00,30.7,27.0,29.94,WSW,245,5.7,6.1,86,0.00,,,0.00,0.00,VWS V14.01,2013-10-22 09:28:00,
2013-10-22 05:29:00,30.6,26.8,29.94,WSW,244,6.3,6.3,85,0.00,,,0.00,0.00,VWS V14.01,2013-10-22 09:29:00,
2013-10-22 05:31:00,30.7,26.9,29.95,WSW,246,6.9,6.9,86,0.00,,,0.00,0.00,VWS V14.01,2013-10-22 09:31:00,
2013-10-22 05:32:00,31.0,27.1,29.95,SSW,210,5.7,6.9,85,0.00,,,0.00,0.00,VWS V14.01,2013-10-22 09:32:00,
2013-10-22 05:34:00,30.5,26.6,29.95,WSW,244,5.1,5.4,85,0.00,,,0.00,0.00,VWS V14.01,2013-10-22 09:34:00,
2013-10-22 05:35:00,30.8,26.9,29.95,West,259,7.8,7.8,85,0.00,,,0.00,0.00,VWS V14.01,2013-10-22 09:35:00,
2013-10-22 05:36:00,30.4,26.5,29.94,WSW,243,5.9,5.9,85,0.00,,,0.00,0.00,VWS V14.01,2013-10-22 09:36:00,
2013-10-22 05:37:00,30.0,26.0,29.95,WSW,247,3.4,5.9,85,0.00,,,0.00,0.00,VWS V14.01,2013-10-22 09:37:00,
2013-10-22 05:38:00,30.3,26.3,29.95,WSW,253,5.9,5.9,85,0.00,,,0.00,0.73,VWS V14.01,2013-10-22 09:38:00,
2013-10-22 05:39:00,30.2,26.4,29.95,WSW,243,4.9,4.9,85,0.00,,,0.00,0.00,VWS V14.01,2013-10-22 09:39:00,
2013-10-22 05:40:00,29.9,26.2,29.95,WSW,245,4.9,4.9,86,0.00,,,0.00,0.00,VWS V14.01,2013-10-22 09:40:00,
2013-10-22 05:41:00,29.8,26.1,29.95,SW,233,5.4,6.3,86,0.00,,,0.00,0.00,VWS V14.01,2013-10-22 09:41:00,
2013-10-22 05:42:00,30.0,26.2,29.95,WSW,245,4.0,4.0,86,0.00,,,0.00,0.00,VWS V14.01,2013-10-22 09:42:00,
2013-10-22 05:43:00,30.0,26.2,29.95,WSW,239,4.0,4.0,86,0.00,,,0.00,0.00,VWS V14.01,2013-10-22 09:43:00,
2013-10-22 05:45:00,29.9,26.2,29.95,WSW,238,5.1,5.1,86,0.00,,,0.00,0.00,VWS V14.01,2013-10-22 09:45:00,
2013-10-22 05:46:00,30.0,26.4,29.95,WSW,247,4.2,4.4,86,0.00,,,0.00,0.00,VWS V14.01,2013-10-22 09:46:00,
2013-10-22 05:47:00,30.0,26.4,29.95,WSW,248,3.9,4.4,86,0.00,,,0.00,0.00,VWS V14.01,2013-10-22 09:47:00,
2013-10-22 05:48:00,30.0,26.5,29.94,WSW,243,4.7,4.7,87,0.00,,,0.00,0.00,VWS V14.01,2013-10-22 09:48:00,
2013-10-22 05:49:00,29.9,26.4,29.95,West,260,4.5,4.7,87,0.00,,,0.00,0.00,VWS V14.01,2013-10-22 09:49:00,
2013-10-22 05:50:00,30.0,26.5,29.94,WSW,244,3.9,6.8,87,0.00,,,0.00,0.00,VWS V14.01,2013-10-22 09:50:00,
2013-10-22 05:51:00,29.8,26.2,30.00,WSW,242,4.7,4.7,86,0.00,,,0.00,0.00,VWS V14.01,2013-10-22 09:51:00,
2013-10-22 05:52:00,29.9,26.4,29.96,WSW,254,4.2,4.7,86,0.00,,,0.00,0.00,VWS V14.01,2013-10-22 09:52:00,
2013-10-22 05:54:00,30.0,26.6,29.94,WSW,248,4.9,5.2,87,0.00,,,0.00,0.00,VWS V14.01,2013-10-22 09:54:00,
2013-10-22 05:55:00,29.8,26.4,29.95,SW,233,5.1,5.1,87,0.00,,,0.00,0.00,VWS V14.01,2013-10-22 09:55:00,
2013-10-22 05:56:00,30.3,27.0,29.95,WSW,242,6.3,6.3,87,0.00,,,0.00,0.00,VWS V14.01,2013-10-22 09:56:00,
2013-10-22 05:58:00,30.0,26.7,29.96,WSW,250,5.4,5.4,87,0.00,,,0.00,0.00,VWS V14.01,2013-10-22 09:58:00,
2013-10-22 05:59:00,29.9,25.8,29.95,WSW,249,5.2,5.6,84,0.00,,,0.00,0.00,VWS V14.01,2013-10-22 09:59:00,
2013-10-22 06:01:00,30.2,26.9,29.95,SW,230,5.9,5.9,87,0.00,,,0.00,0.00,VWS V14.01,2013-10-22 10:01:00,
2013-10-22 06:02:00,30.2,26.7,29.96,WSW,248,5.1,6.6,87,0.00,,,0.00,0.00,VWS V14.01,2013-10-22 10:02:00,
2013-10-22 06:03:00,30.1,26.7,29.95,West,266,5.6,5.6,87,0.00,,,0.00,0.00,VWS V14.01,2013-10-22 10:03:00,
2013-10-22 06:04:00,29.8,26.4,29.95,WSW,246,4.9,5.6,87,0.00,,,0.00,0.43,VWS V14.01,2013-10-22 10:04:00,
2013-10-22 06:07:00,29.5,25.9,29.95,WSW,248,5.1,6.6,86,0.00,,,0.00,0.12,VWS V14.01,2013-10-22 10:07:00,
2013-10-22 06:08:00,30.1,26.6,29.96,West,261,5.6,5.6,86,0.00,,,0.00,0.00,VWS V14.01,2013-10-22 10:08:00,
2013-10-22 06:09:00,29.7,26.1,29.95,WSW,257,4.7,6.3,86,0.00,,,0.00,0.00,VWS V14.01,2013-10-22 10:09:00,
2013-10-22 06:10:00,30.1,26.5,29.95,WSW,247,4.9,4.9,86,0.00,,,0.00,0.00,VWS V14.01,2013-10-22 10:10:00,
2013-10-22 06:11:00,30.1,26.6,29.95,WSW,250,5.4,5.4,87,0.00,,,0.00,0.00,VWS V14.01,2013-10-22 10:11:00,
2013-10-22 06:13:00,29.7,26.1,29.95,WSW,258,4.4,5.7,86,0.00,,,0.00,0.00,VWS V14.01,2013-10-22 10:13:00,
2013-10-22 06:14:00,29.7,26.1,29.95,WSW,241,6.3,6.3,86,0.00,,,0.00,0.00,VWS V14.01,2013-10-22 10:14:00,
2013-10-22 06:15:00,30.0,26.3,29.95,WSW,258,6.1,6.3,86,0.00,,,0.00,0.00,VWS V14.01,2013-10-22 10:15:00,
2013-10-22 06:16:00,29.8,26.1,29.95,WSW,241,5.7,6.1,86,0.00,,,0.00,0.00,VWS V14.01,2013-10-22 10:16:00,
2013-10-22 06:18:00,29.8,26.1,29.94,WSW,257,5.6,6.8,86,0.00,,,0.00,0.00,VWS V14.01,2013-10-22 10:18:00,
2013-10-22 06:19:00,29.5,25.8,29.95,WSW,237,5.6,5.7,86,0.00,,,0.00,0.00,VWS V14.01,2013-10-22 10:19:00,
2013-10-22 06:20:00,29.9,26.3,29.95,WSW,257,6.6,6.6,86,0.00,,,0.00,0.00,VWS V14.01,2013-10-22 10:20:00,
2013-10-22 06:21:00,29.5,25.8,29.95,WSW,251,4.9,6.6,86,0.00,,,0.00,0.00,VWS V14.01,2013-10-22 10:21:00,
2013-10-22 06:23:00,29.6,25.9,29.95,WSW,255,5.1,5.1,86,0.00,,,0.00,0.00,VWS V14.01,2013-10-22 10:23:00,
2013-10-22 06:24:00,29.7,26.0,29.95,WNW,283,5.6,5.6,86,0.00,,,0.00,0.00,VWS V14.01,2013-10-22 10:24:00,
2013-10-22 06:25:00,29.7,26.0,29.95,WSW,247,5.1,5.1,86,0.00,,,0.00,0.00,VWS V14.01,2013-10-22 10:25:00,
2013-10-22 06:26:00,29.6,25.9,29.95,WSW,245,4.2,6.6,86,0.00,,,0.00,0.00,VWS V14.01,2013-10-22 10:26:00,
2013-10-22 06:27:00,30.0,26.3,29.95,WSW,252,6.3,6.3,86,0.00,,,0.00,0.43,VWS V14.01,2013-10-22 10:27:00,
2013-10-22 06:29:00,29.8,26.0,29.95,WSW,244,5.2,6.8,86,0.00,,,0.00,0.00,VWS V14.01,2013-10-22 10:29:00,
2013-10-22 06:30:00,30.0,26.2,29.94,WSW,255,6.9,8.1,85,0.00,,,0.00,0.00,VWS V14.01,2013-10-22 10:30:00,
2013-10-22 06:32:00,30.0,26.0,29.94,WSW,252,6.4,6.4,85,0.00,,,0.00,0.00,VWS V14.01,2013-10-22 10:32:00,
2013-10-22 06:34:00,29.7,25.6,29.95,WSW,257,4.4,4.9,85,0.00,,,0.00,0.00,VWS V14.01,2013-10-22 10:34:00,
2013-10-22 06:35:00,30.4,26.4,29.95,WSW,257,7.6,7.6,85,0.00,,,0.00,0.00,VWS V14.01,2013-10-22 10:35:00,
2013-10-22 06:36:00,30.4,26.4,29.95,WSW,257,7.6,7.6,85,0.00,,,0.00,0.00,VWS V14.01,2013-10-22 10:36:00,
2013-10-22 06:37:00,30.5,26.3,29.95,West,261,7.3,7.3,84,0.00,,,0.00,0.12,VWS V14.01,2013-10-22 10:37:00,
2013-10-22 06:38:00,30.5,26.3,29.95,West,261,7.3,7.3,84,0.00,,,0.00,0.12,VWS V14.01,2013-10-22 10:38:00,
2013-10-22 06:41:00,30.0,25.7,29.95,WSW,250,7.1,7.1,84,0.00,,,0.00,0.00,VWS V14.01,2013-10-22 10:41:00,
2013-10-22 06:43:00,29.9,25.7,29.95,WSW,253,6.3,6.3,84,0.00,,,0.00,0.00,VWS V14.01,2013-10-22 10:43:00,
2013-10-22 06:44:00,29.8,25.7,29.95,WSW,255,4.7,5.1,84,0.00,,,0.00,0.00,VWS V14.01,2013-10-22 10:44:00,
2013-10-22 06:46:00,29.6,25.5,29.95,WSW,249,5.4,6.6,84,0.00,,,0.00,0.43,VWS V14.01,2013-10-22 10:46:00,
2013-10-22 06:47:00,30.3,26.1,29.95,WSW,251,6.8,6.8,84,0.00,,,0.00,0.00,VWS V14.01,2013-10-22 10:47:00,
2013-10-22 06:48:00,30.1,25.9,29.95,WSW,251,6.1,6.1,84,0.00,,,0.00,0.43,VWS V14.01,2013-10-22 10:48:00,
2013-10-22 06:49:00,29.7,25.4,29.95,WSW,243,5.2,6.1,84,0.00,,,0.00,0.00,VWS V14.01,2013-10-22 10:49:00,
2013-10-22 06:52:00,30.1,26.0,29.95,WSW,253,5.9,5.9,84,0.00,,,0.00,0.00,VWS V14.01,2013-10-22 10:52:00,
2013-10-22 06:53:00,30.1,26.0,29.95,WSW,253,7.3,7.8,85,0.00,,,0.00,0.00,VWS V14.01,2013-10-22 10:53:00,
2013-10-22 06:54:00,29.8,25.6,29.95,WSW,252,5.6,7.3,84,0.00,,,0.00,0.12,VWS V14.01,2013-10-22 10:54:00,
2013-10-22 06:55:00,29.7,25.4,29.95,WSW,254,5.2,5.6,84,0.00,,,0.00,0.00,VWS V14.01,2013-10-22 10:55:00,
2013-10-22 06:57:00,29.3,25.2,29.95,West,264,5.1,5.9,84,0.00,,,0.00,0.00,VWS V14.01,2013-10-22 10:57:00,
2013-10-22 06:58:00,29.5,25.4,29.96,SW,232,4.0,4.0,85,0.00,,,0.00,0.00,VWS V14.01,2013-10-22 10:58:00,
2013-10-22 06:59:00,30.0,26.0,29.95,West,260,6.1,6.1,85,0.00,,,0.00,0.00,VWS V14.01,2013-10-22 10:59:00,
2013-10-22 07:00:00,30.0,26.0,29.95,West,260,6.1,6.1,85,0.00,,,0.00,0.00,VWS V14.01,2013-10-22 11:00:00,
2013-10-22 07:03:00,29.4,25.5,29.95,West,266,4.4,5.9,85,0.00,,,0.00,0.00,VWS V14.01,2013-10-22 11:03:00,
2013-10-22 07:04:00,29.4,25.4,29.96,WSW,254,5.1,5.9,85,0.00,,,0.00,0.00,VWS V14.01,2013-10-22 11:04:00,
2013-10-22 07:05:00,29.6,24.9,29.95,West,259,5.2,5.9,82,0.00,,,0.00,0.00,VWS V14.01,2013-10-22 11:05:00,
2013-10-22 07:07:00,29.2,25.3,29.95,WSW,251,4.7,5.9,85,0.00,,,0.00,0.00,VWS V14.01,2013-10-22 11:07:00,
2013-10-22 07:08:00,29.3,25.5,29.95,WSW,251,4.5,5.9,86,0.00,,,0.00,0.00,VWS V14.01,2013-10-22 11:08:00,
2013-10-22 07:09:00,29.3,25.5,29.95,WSW,251,4.5,5.9,86,0.00,,,0.00,0.00,VWS V14.01,2013-10-22 11:09:00,
2013-10-22 07:10:00,29.6,25.9,29.95,WSW,244,4.9,5.9,86,0.00,,,0.00,0.43,VWS V14.01,2013-10-22 11:10:00,
2013-10-22 07:14:00,29.3,25.8,29.96,WSW,242,5.1,5.9,86,0.00,,,0.00,0.00,VWS V14.01,2013-10-22 11:14:00,
2013-10-22 07:15:00,29.0,25.4,29.95,WSW,248,4.4,5.9,86,0.00,,,0.00,0.12,VWS V14.01,2013-10-22 11:15:00,
2013-10-22 07:16:00,28.7,25.1,29.95,WSW,252,4.4,5.9,86,0.00,,,0.00,0.00,VWS V14.01,2013-10-22 11:16:00,
2013-10-22 07:17:00,29.5,26.1,29.95,WSW,246,4.9,5.9,87,0.00,,,0.00,0.00,VWS V14.01,2013-10-22 11:17:00,
2013-10-22 07:18:00,28.7,25.3,29.96,WSW,250,4.2,5.9,87,0.00,,,0.00,0.00,VWS V14.01,2013-10-22 11:18:00,
2013-10-22 07:19:00,28.6,25.2,29.95,WSW,244,4.0,5.9,87,0.00,,,0.00,0.00,VWS V14.01,2013-10-22 11:19:00,
2013-10-22 07:20:00,29.2,25.8,29.95,WSW,240,4.4,5.9,87,0.00,,,0.00,0.00,VWS V14.01,2013-10-22 11:20:00,
2013-10-22 07:21:00,29.2,25.8,29.95,WSW,240,4.4,5.9,87,0.00,,,0.00,0.00,VWS V14.01,2013-10-22 11:21:00,
2013-10-22 07:22:00,29.1,25.8,29.96,WSW,240,3.7,5.9,87,0.00,,,0.00,0.00,VWS V14.01,2013-10-22 11:22:00,
2013-10-22 07:23:00,29.0,25.7,29.96,WSW,251,4.0,5.9,87,0.00,,,0.00,0.00,VWS V14.01,2013-10-22 11:23:00,
2013-10-22 07:25:00,29.0,25.7,29.96,WSW,238,5.4,5.9,87,0.00,,,0.00,0.00,VWS V14.01,2013-10-22 11:25:00,
2013-10-22 07:26:00,29.2,25.9,29.96,SW,229,6.1,6.1,87,0.00,,,0.00,0.00,VWS V14.01,2013-10-22 11:26:00,
2013-10-22 07:27:00,29.1,25.7,29.96,WSW,244,5.6,6.6,87,0.00,,,0.00,0.00,VWS V14.01,2013-10-22 11:27:00,
2013-10-22 07:29:00,29.0,25.7,29.96,WSW,247,4.0,6.6,87,0.00,,,0.00,0.00,VWS V14.01,2013-10-22 11:29:00,
2013-10-22 07:31:00,28.9,25.5,29.96,WSW,251,4.5,6.6,87,0.00,,,0.00,0.00,VWS V14.01,2013-10-22 11:31:00,
2013-10-22 07:32:00,29.0,25.5,29.96,WSW,250,4.4,6.6,87,0.00,,,0.00,0.00,VWS V14.01,2013-10-22 11:32:00,
2013-10-22 07:34:00,29.0,25.6,29.96,West,263,4.4,6.6,87,0.00,,,0.00,0.00,VWS V14.01,2013-10-22 11:34:00,
2013-10-22 07:36:00,28.5,25.2,29.96,WSW,255,3.7,6.6,87,0.00,,,0.00,0.00,VWS V14.01,2013-10-22 11:36:00,
2013-10-22 07:38:00,29.0,25.9,29.95,WSW,243,3.7,6.6,88,0.00,,,0.00,0.00,VWS V14.01,2013-10-22 11:38:00,
2013-10-22 07:40:00,28.7,25.7,29.96,WSW,247,3.9,6.6,88,0.00,,,0.00,0.00,VWS V14.01,2013-10-22 11:40:00,
2013-10-22 07:42:00,28.6,25.6,29.96,WSW,254,4.0,6.6,88,0.00,,,0.00,0.00,VWS V14.01,2013-10-22 11:42:00,
2013-10-22 07:43:00,28.6,25.5,29.96,WSW,253,4.0,6.6,88,0.00,,,0.00,0.00,VWS V14.01,2013-10-22 11:43:00,
2013-10-22 07:45:00,29.3,26.4,29.96,WSW,250,7.5,7.5,89,0.00,,,0.00,0.00,VWS V14.01,2013-10-22 11:45:00,
2013-10-22 07:47:00,28.6,25.6,29.96,WSW,247,4.9,7.5,88,0.00,,,0.00,0.49,VWS V14.01,2013-10-22 11:47:00,
2013-10-22 07:48:00,28.9,25.8,29.96,WSW,250,4.0,7.5,88,0.00,,,0.00,1.28,VWS V14.01,2013-10-22 11:48:00,
2013-10-22 07:50:00,28.6,25.6,29.96,WSW,241,3.7,7.5,88,0.00,,,0.00,2.32,VWS V14.01,2013-10-22 11:50:00,
2013-10-22 07:51:00,28.5,25.5,29.97,WSW,238,4.2,7.5,89,0.00,,,0.00,0.00,VWS V14.01,2013-10-22 11:51:00,
2013-10-22 07:53:00,28.5,25.7,29.96,WSW,242,5.2,7.5,89,0.00,,,0.00,2.26,VWS V14.01,2013-10-22 11:53:00,
2013-10-22 07:54:00,28.6,25.9,29.96,West,266,4.2,7.5,89,0.00,,,0.00,1.65,VWS V14.01,2013-10-22 11:54:00,
2013-10-22 07:56:00,28.5,25.7,30.02,WSW,246,4.7,7.5,89,0.00,,,0.00,2.44,VWS V14.01,2013-10-22 11:56:00,
2013-10-22 07:57:00,28.9,26.1,29.98,WSW,251,5.7,7.5,89,0.00,,,0.00,3.54,VWS V14.01,2013-10-22 11:57:00,
2013-10-22 07:59:00,28.3,25.4,29.96,WSW,242,3.0,7.5,89,0.00,,,0.00,4.70,VWS V14.01,2013-10-22 11:59:00,
2013-10-22 08:00:00,28.5,25.6,29.97,WSW,242,3.9,7.5,89,0.00,,,0.00,4.70,VWS V14.01,2013-10-22 12:00:00,
2013-10-22 08:01:00,28.3,25.5,29.96,SW,230,4.9,7.5,89,0.00,,,0.00,4.95,VWS V14.01,2013-10-22 12:01:00,
2013-10-22 08:02:00,28.7,25.9,29.96,SW,235,4.2,4.7,89,0.00,,,0.00,6.65,VWS V14.01,2013-10-22 12:02:00,
2013-10-22 08:04:00,28.7,25.8,29.97,WSW,248,4.5,4.5,89,0.00,,,0.00,9.28,VWS V14.01,2013-10-22 12:04:00,
2013-10-22 08:05:00,28.9,26.1,29.97,WSW,243,6.3,6.3,89,0.00,,,0.00,11.42,VWS V14.01,2013-10-22 12:05:00,
2013-10-22 08:06:00,28.5,25.6,29.97,WSW,252,5.7,5.7,88,0.00,,,0.00,14.47,VWS V14.01,2013-10-22 12:06:00,
2013-10-22 08:07:00,28.8,25.8,29.97,WSW,243,6.3,6.3,88,0.00,,,0.00,14.47,VWS V14.01,2013-10-22 12:07:00,
2013-10-22 08:10:00,28.8,25.4,29.97,SW,234,4.7,5.1,87,0.00,,,0.00,19.29,VWS V14.01,2013-10-22 12:10:00,
2013-10-22 08:11:00,29.0,25.5,29.97,SW,227,4.7,4.7,86,0.00,,,0.00,24.85,VWS V14.01,2013-10-22 12:11:00,
2013-10-22 08:12:00,29.0,25.4,29.97,SW,233,4.5,4.7,86,0.00,,,0.00,24.24,VWS V14.01,2013-10-22 12:12:00,
2013-10-22 08:13:00,29.1,25.3,29.97,SW,230,4.9,5.2,85,0.00,,,0.00,26.13,VWS V14.01,2013-10-22 12:13:00,
2013-10-22 08:15:00,29.4,25.3,29.97,SW,233,3.7,4.4,85,0.00,,,0.00,31.26,VWS V14.01,2013-10-22 12:15:00,
2013-10-22 08:18:00,29.3,24.9,29.98,WSW,250,4.5,6.8,83,0.00,,,0.00,34.00,VWS V14.01,2013-10-22 12:18:00,
2013-10-22 08:19:00,29.7,25.0,29.97,SW,232,6.9,6.9,82,0.00,,,0.00,36.45,VWS V14.01,2013-10-22 12:19:00,
2013-10-22 08:21:00,29.7,24.8,29.97,SW,228,8.1,8.1,82,0.00,,,0.00,34.55,VWS V14.01,2013-10-22 12:21:00,
2013-10-22 08:22:00,29.9,24.7,29.97,WSW,237,6.6,6.8,80,0.00,,,0.00,43.59,VWS V14.01,2013-10-22 12:22:00,
2013-10-22 08:24:00,30.0,24.5,30.03,SW,231,4.9,6.4,80,0.00,,,0.00,46.21,VWS V14.01,2013-10-22 12:24:00,
2013-10-22 08:26:00,29.6,23.9,29.98,WSW,241,8.1,8.1,79,0.00,,,0.00,50.61,VWS V14.01,2013-10-22 12:26:00,
2013-10-22 08:28:00,30.1,24.1,29.98,WSW,237,4.5,4.5,78,0.00,,,0.00,50.31,VWS V14.01,2013-10-22 12:28:00,
2013-10-22 08:29:00,30.2,24.0,29.98,WSW,247,7.1,7.1,78,0.00,,,0.00,55.92,VWS V14.01,2013-10-22 12:29:00,
2013-10-22 08:30:00,30.2,24.0,29.98,WSW,247,7.1,7.1,78,0.00,,,0.00,55.92,VWS V14.01,2013-10-22 12:30:00,
2013-10-22 08:31:00,30.4,24.0,29.97,SW,234,6.9,6.9,77,0.00,,,0.00,60.87,VWS V14.01,2013-10-22 12:31:00,
2013-10-22 08:33:00,30.2,23.8,29.97,SW,225,5.6,6.9,76,0.00,,,0.00,63.31,VWS V14.01,2013-10-22 12:33:00,
2013-10-22 08:34:00,30.3,23.5,29.97,WSW,242,7.6,7.6,75,0.00,,,0.00,65.14,VWS V14.01,2013-10-22 12:34:00,
2013-10-22 08:36:00,30.7,24.0,29.97,SW,230,4.0,5.4,76,0.00,,,0.00,70.63,VWS V14.01,2013-10-22 12:36:00,
2013-10-22 08:37:00,30.2,23.5,29.97,SW,231,3.4,4.0,76,0.00,,,0.00,70.51,VWS V14.01,2013-10-22 12:37:00,
2013-10-22 08:39:00,30.3,23.2,29.97,SW,235,6.8,8.0,75,0.00,,,0.00,73.75,VWS V14.01,2013-10-22 12:39:00,
2013-10-22 08:40:00,30.4,23.1,29.97,West,260,6.6,6.8,74,0.00,,,0.00,75.52,VWS V14.01,2013-10-22 12:40:00,
2013-10-22 08:41:00,30.8,23.3,29.97,SW,224,7.8,7.8,73,0.00,,,0.00,80.40,VWS V14.01,2013-10-22 12:41:00,
2013-10-22 08:44:00,30.6,23.3,29.97,WSW,246,6.1,6.1,74,0.00,,,0.00,85.04,VWS V14.01,2013-10-22 12:44:00,
2013-10-22 08:45:00,30.2,22.8,29.97,WSW,250,5.4,5.4,73,0.00,,,0.00,87.73,VWS V14.01,2013-10-22 12:45:00,
2013-10-22 08:46:00,30.3,23.0,29.98,WSW,248,4.9,5.4,74,0.00,,,0.00,90.90,VWS V14.01,2013-10-22 12:46:00,
2013-10-22 08:47:00,30.2,22.7,29.97,WSW,255,4.7,5.1,73,0.00,,,0.00,93.35,VWS V14.01,2013-10-22 12:47:00,
2013-10-22 08:49:00,30.5,23.0,29.97,WSW,237,7.5,7.5,73,0.00,,,0.00,97.50,VWS V14.01,2013-10-22 12:49:00,
2013-10-22 08:51:00,30.6,22.9,29.97,WSW,249,4.0,5.6,73,0.00,,,0.00,101.71,VWS V14.01,2013-10-22 12:51:00,
2013-10-22 08:52:00,31.2,23.2,29.97,WSW,244,5.9,8.7,72,0.00,,,0.00,105.31,VWS V14.01,2013-10-22 12:52:00,
2013-10-22 08:53:00,31.0,23.3,29.97,WSW,249,4.0,6.1,73,0.00,,,0.00,106.96,VWS V14.01,2013-10-22 12:53:00,
2013-10-22 08:55:00,30.9,22.8,30.02,WSW,248,5.4,7.1,72,0.00,,,0.00,111.54,VWS V14.01,2013-10-22 12:55:00,
2013-10-22 08:56:00,30.9,22.8,30.02,WSW,248,5.4,7.1,72,0.00,,,0.00,111.54,VWS V14.01,2013-10-22 12:56:00,
2013-10-22 08:57:00,31.2,23.0,29.97,SW,236,7.8,7.8,71,0.00,,,0.00,114.77,VWS V14.01,2013-10-22 12:57:00,
2013-10-22 08:58:00,31.1,22.6,29.97,WSW,243,8.0,8.0,70,0.00,,,0.00,117.03,VWS V14.01,2013-10-22 12:58:00,
2013-10-22 08:59:00,32.2,23.5,29.97,WSW,238,8.0,8.0,70,0.00,,,0.00,120.39,VWS V14.01,2013-10-22 12:59:00,
2013-10-22 09:01:00,32.1,23.4,29.97,SW,228,6.8,7.5,70,0.00,,,0.00,124.85,VWS V14.01,2013-10-22 13:01:00,
2013-10-22 09:02:00,31.8,22.6,29.97,SW,235,8.7,8.7,68,0.00,,,0.00,128.94,VWS V14.01,2013-10-22 13:02:00,
2013-10-22 09:03:00,31.9,23.0,29.97,WSW,242,7.1,8.7,69,0.00,,,0.00,131.44,VWS V14.01,2013-10-22 13:03:00,
2013-10-22 09:04:00,31.9,22.8,29.97,WSW,240,6.4,8.7,69,0.00,,,0.00,134.74,VWS V14.01,2013-10-22 13:04:00,
2013-10-22 09:07:00,32.2,22.8,29.97,West,260,6.8,8.7,68,0.00,,,0.00,142.49,VWS V14.01,2013-10-22 13:07:00,
2013-10-22 09:08:00,32.2,22.9,29.99,WSW,256,6.1,8.7,68,0.00,,,0.00,146.34,VWS V14.01,2013-10-22 13:08:00,
2013-10-22 09:09:00,33.4,24.2,29.97,SW,235,5.2,8.7,68,0.00,,,0.00,149.02,VWS V14.01,2013-10-22 13:09:00,
2013-10-22 09:12:00,32.5,22.3,29.97,West,264,5.4,8.7,66,0.00,,,0.00,157.02,VWS V14.01,2013-10-22 13:12:00,
2013-10-22 09:13:00,32.5,22.3,29.97,West,264,5.4,8.7,66,0.00,,,0.00,157.02,VWS V14.01,2013-10-22 13:13:00,
2013-10-22 09:14:00,32.2,21.6,29.97,West,259,9.3,9.3,64,0.00,,,0.00,158.79,VWS V14.01,2013-10-22 13:14:00,
2013-10-22 09:15:00,32.4,22.0,29.97,WSW,258,8.3,9.3,65,0.00,,,0.00,161.60,VWS V14.01,2013-10-22 13:15:00,
2013-10-22 09:18:00,33.6,22.9,29.97,SW,223,5.9,9.3,65,0.00,,,0.00,168.32,VWS V14.01,2013-10-22 13:18:00,
2013-10-22 09:19:00,33.3,22.7,29.98,WSW,244,9.0,9.3,65,0.00,,,0.00,148.78,VWS V14.01,2013-10-22 13:19:00,
2013-10-22 09:20:00,34.1,23.6,29.97,SW,224,6.9,9.3,65,0.00,,,0.00,173.20,VWS V14.01,2013-10-22 13:20:00,
2013-10-22 09:21:00,33.3,22.3,29.97,WSW,247,10.2,10.2,64,0.00,,,0.00,175.34,VWS V14.01,2013-10-22 13:21:00,
2013-10-22 09:22:00,33.2,21.8,29.97,WSW,245,8.3,10.9,62,0.00,,,0.00,178.08,VWS V14.01,2013-10-22 13:22:00,
2013-10-22 09:24:00,33.3,22.6,29.96,West,276,6.6,10.9,65,0.00,,,0.00,182.97,VWS V14.01,2013-10-22 13:24:00,
2013-10-22 09:25:00,33.2,22.1,29.96,WSW,257,6.6,10.9,63,0.00,,,0.00,182.97,VWS V14.01,2013-10-22 13:25:00,
2013-10-22 09:27:00,33.1,22.0,29.98,WSW,252,8.5,11.2,63,0.00,,,0.00,159.65,VWS V14.01,2013-10-22 13:27:00,
2013-10-22 09:29:00,33.6,22.2,29.97,WSW,252,8.7,11.2,63,0.00,,,0.00,176.86,VWS V14.01,2013-10-22 13:29:00,
2013-10-22 09:30:00,33.4,22.2,30.02,WSW,244,8.3,11.2,63,0.00,,,0.00,195.48,VWS V14.01,2013-10-22 13:30:00,
2013-10-22 09:32:00,33.8,21.8,30.01,WSW,246,11.2,11.4,61,0.00,,,0.00,202.01,VWS V14.01,2013-10-22 13:32:00,
2013-10-22 09:33:00,33.8,21.8,30.01,WSW,246,11.2,11.4,61,0.00,,,0.00,202.01,VWS V14.01,2013-10-22 13:33:00,
2013-10-22 09:34:00,33.2,21.1,29.97,West,271,10.9,11.4,61,0.00,,,0.00,202.20,VWS V14.01,2013-10-22 13:34:00,
2013-10-22 09:35:00,34.8,23.5,30.01,WSW,237,8.5,11.4,63,0.00,,,0.00,210.32,VWS V14.01,2013-10-22 13:35:00,
2013-10-22 09:38:00,33.8,21.6,29.97,SW,230,8.5,11.4,60,0.00,,,0.00,129.24,VWS V14.01,2013-10-22 13:38:00,
2013-10-22 09:39:00,34.0,21.8,29.98,WSW,250,8.0,11.4,61,0.00,,,0.00,213.00,VWS V14.01,2013-10-22 13:39:00,
2013-10-22 09:40:00,34.0,21.9,29.97,SW,234,7.3,11.4,61,0.00,,,0.00,213.49,VWS V14.01,2013-10-22 13:40:00,
2013-10-22 09:41:00,33.7,21.1,29.97,WSW,250,12.4,12.4,59,0.00,,,0.00,219.60,VWS V14.01,2013-10-22 13:41:00,
2013-10-22 09:43:00,35.5,23.1,29.97,SW,234,9.2,12.4,60,0.00,,,0.00,227.11,VWS V14.01,2013-10-22 13:43:00,
2013-10-22 09:44:00,35.6,23.4,30.02,SW,223,6.9,12.4,61,0.00,,,0.00,229.37,VWS V14.01,2013-10-22 13:44:00,
2013-10-22 09:46:00,35.0,21.6,29.97,SW,235,10.4,12.4,58,0.00,,,0.00,233.76,VWS V14.01,2013-10-22 13:46:00,
2013-10-22 09:48:00,35.8,22.3,29.97,SW,227,8.3,12.4,58,0.00,,,0.00,241.58,VWS V14.01,2013-10-22 13:48:00,
2013-10-22 09:49:00,34.6,20.0,29.97,WSW,247,9.9,12.4,55,0.00,,,0.00,244.08,VWS V14.01,2013-10-22 13:49:00,
2013-10-22 09:50:00,35.3,21.6,29.97,WSW,247,10.4,12.4,57,0.00,,,0.00,164.41,VWS V14.01,2013-10-22 13:50:00,
2013-10-22 09:54:00,35.7,22.3,29.96,WSW,244,11.7,12.4,58,0.00,,,0.00,255.98,VWS V14.01,2013-10-22 13:54:00,
2013-10-22 09:55:00,35.8,21.5,29.95,WSW,238,14.0,14.0,56,0.00,,,0.00,258.67,VWS V14.01,2013-10-22 13:55:00,
2013-10-22 09:56:00,35.6,21.5,29.97,West,269,10.5,14.0,56,0.00,,,0.00,259.40,VWS V14.01,2013-10-22 13:56:00,
2013-10-22 09:59:00,34.9,20.4,29.97,WSW,245,10.4,14.0,55,0.00,,,0.00,268.01,VWS V14.01,2013-10-22 13:59:00,
2013-10-22 10:00:00,36.0,21.9,29.97,WSW,253,6.9,14.0,56,0.00,,,0.00,268.93,VWS V14.01,2013-10-22 14:00:00,
2013-10-22 10:01:00,35.6,20.8,30.01,West,279,9.9,10.5,54,0.00,,,0.00,274.24,VWS V14.01,2013-10-22 14:01:00,
2013-10-22 10:02:00,36.1,21.2,29.97,WSW,257,10.2,10.4,54,0.00,,,0.00,275.76,VWS V14.01,2013-10-22 14:02:00,
2013-10-22 10:04:00,36.0,21.7,29.96,West,265,8.8,11.2,56,0.00,,,0.00,280.40,VWS V14.01,2013-10-22 14:04:00,
2013-10-22 10:05:00,35.8,21.6,29.96,WSW,252,9.2,11.2,56,0.00,,,0.00,280.65,VWS V14.01,2013-10-22 14:05:00,
2013-10-22 10:06:00,35.7,21.0,29.96,WSW,246,12.6,12.6,55,0.00,,,0.00,283.09,VWS V14.01,2013-10-22 14:06:00,
2013-10-22 10:07:00,36.3,21.5,29.97,West,259,10.5,12.6,55,0.00,,,0.00,285.53,VWS V14.01,2013-10-22 14:07:00,
2013-10-22 10:08:00,35.8,20.8,29.96,West,260,10.4,12.6,54,0.00,,,0.00,287.00,VWS V14.01,2013-10-22 14:08:00,
2013-10-22 10:09:00,36.6,21.8,29.96,West,263,8.8,12.6,55,0.00,,,0.00,288.83,VWS V14.01,2013-10-22 14:09:00,
2013-10-22 10:11:00,36.0,20.6,29.95,West,261,12.3,12.6,53,0.00,,,0.00,293.10,VWS V14.01,2013-10-22 14:11:00,
2013-10-22 10:12:00,36.1,20.7,29.96,West,276,10.5,12.6,53,0.00,,,0.00,297.74,VWS V14.01,2013-10-22 14:12:00,
2013-10-22 10:13:00,36.2,21.2,29.96,West,264,10.2,12.6,54,0.00,,,0.00,296.52,VWS V14.01,2013-10-22 14:13:00,
2013-10-22 10:14:00,35.9,20.7,29.96,West,259,10.0,12.6,53,0.00,,,0.00,302.63,VWS V14.01,2013-10-22 14:14:00,
2013-10-22 10:16:00,37.9,23.0,29.96,West,281,6.8,12.6,54,0.00,,,0.00,306.04,VWS V14.01,2013-10-22 14:16:00,
2013-10-22 10:17:00,37.4,22.4,29.96,West,276,7.3,12.6,54,0.00,,,0.00,308.49,VWS V14.01,2013-10-22 14:17:00,
2013-10-22 10:18:00,38.7,23.5,29.96,WNW,286,8.7,12.6,54,0.00,,,0.00,312.64,VWS V14.01,2013-10-22 14:18:00,
2013-10-22 10:20:00,37.4,21.7,29.96,WNW,296,11.2,12.6,53,0.00,,,0.00,314.53,VWS V14.01,2013-10-22 14:20:00,
2013-10-22 10:22:00,37.7,21.5,29.96,West,259,13.1,13.1,52,0.00,,,0.00,315.08,VWS V14.01,2013-10-22 14:22:00,
2013-10-22 10:23:00,38.5,22.2,29.96,WSW,253,11.1,13.1,52,0.00,,,0.00,318.50,VWS V14.01,2013-10-22 14:23:00,
2013-10-22 10:24:00,38.8,23.3,29.95,WSW,247,9.2,13.1,53,0.00,,,0.00,322.89,VWS V14.01,2013-10-22 14:24:00,
2013-10-22 10:25:00,37.8,21.3,29.95,WSW,247,9.9,13.1,51,0.00,,,0.00,326.74,VWS V14.01,2013-10-22 14:25:00,
2013-10-22 10:27:00,38.7,21.9,29.95,WSW,249,10.2,13.1,50,0.00,,,0.00,329.73,VWS V14.01,2013-10-22 14:27:00,
2013-10-22 10:28:00,38.3,21.9,29.96,West,259,10.7,13.1,51,0.00,,,0.00,332.17,VWS V14.01,2013-10-22 14:28:00,
2013-10-22 10:30:00,39.2,23.0,29.95,WNW,300,8.5,13.1,52,0.00,,,0.00,337.30,VWS V14.01,2013-10-22 14:30:00,
2013-10-22 10:33:00,39.3,22.1,29.95,West,279,10.2,13.1,50,0.00,,,0.00,342.43,VWS V14.01,2013-10-22 14:33:00,
2013-10-22 10:34:00,39.4,23.1,29.95,West,273,9.7,13.1,52,0.00,,,0.00,346.58,VWS V14.01,2013-10-22 14:34:00,
2013-10-22 10:35:00,39.4,23.1,29.95,West,273,9.7,13.1,52,0.00,,,0.00,346.58,VWS V14.01,2013-10-22 14:35:00,
2013-10-22 10:37:00,38.5,21.0,29.96,WSW,252,9.3,13.1,49,0.00,,,0.00,353.60,VWS V14.01,2013-10-22 14:37:00,
2013-10-22 10:38:00,39.1,21.5,29.95,WNW,284,12.6,13.1,49,0.00,,,0.00,353.91,VWS V14.01,2013-10-22 14:38:00,
2013-10-22 10:40:00,39.2,21.5,29.94,West,273,12.4,14.8,49,0.00,,,0.00,360.93,VWS V14.01,2013-10-22 14:40:00,
2013-10-22 10:41:00,40.4,23.4,29.94,West,260,8.0,14.8,50,0.00,,,0.00,361.23,VWS V14.01,2013-10-22 14:41:00,
2013-10-22 10:43:00,39.0,20.8,29.95,West,265,11.1,14.8,48,0.00,,,0.00,366.36,VWS V14.01,2013-10-22 14:43:00,
2013-10-22 10:44:00,40.3,23.1,29.95,WSW,256,7.6,14.8,50,0.00,,,0.00,367.83,VWS V14.01,2013-10-22 14:44:00,
2013-10-22 10:46:00,40.4,23.2,29.95,WNW,287,9.0,16.4,50,0.00,,,0.00,373.81,VWS V14.01,2013-10-22 14:46:00,
2013-10-22 10:49:00,38.7,20.6,29.95,West,269,12.3,16.4,48,0.00,,,0.00,379.06,VWS V14.01,2013-10-22 14:49:00,
2013-10-22 10:50:00,39.7,21.4,29.95,West,270,12.1,16.4,48,0.00,,,0.00,379.79,VWS V14.01,2013-10-22 14:50:00,
2013-10-22 10:51:00,39.4,20.5,29.94,West,260,13.1,16.4,46,0.00,,,0.00,385.41,VWS V14.01,2013-10-22 14:51:00,
2013-10-22 10:52:00,39.4,20.5,29.94,West,260,13.1,16.4,46,0.00,,,0.00,385.41,VWS V14.01,2013-10-22 14:52:00,
2013-10-22 10:55:00,40.1,22.0,29.94,West,266,11.6,16.4,48,0.00,,,0.00,392.98,VWS V14.01,2013-10-22 14:55:00,
2013-10-22 10:56:00,41.5,22.6,29.95,West,278,10.5,16.4,47,0.00,,,0.00,399.88,VWS V14.01,2013-10-22 14:56:00,
2013-10-22 10:57:00,40.4,21.0,29.95,WNW,296,12.1,16.4,45,0.00,,,0.00,400.31,VWS V14.01,2013-10-22 14:57:00,
2013-10-22 10:59:00,40.5,21.9,29.95,WSW,242,10.9,16.4,47,0.00,,,0.00,408.00,VWS V14.01,2013-10-22 14:59:00,
2013-10-22 11:00:00,39.2,20.6,29.95,West,259,11.4,16.4,47,0.00,,,0.00,407.20,VWS V14.01,2013-10-22 15:00:00,
2013-10-22 11:01:00,40.3,20.8,29.98,WSW,255,13.5,16.4,45,0.00,,,0.00,408.12,VWS V14.01,2013-10-22 15:01:00,
2013-10-22 11:03:00,40.8,21.7,29.94,WNW,296,14.5,14.5,46,0.00,,,0.00,414.96,VWS V14.01,2013-10-22 15:03:00,
2013-10-22 11:05:00,40.2,21.5,29.95,West,268,13.5,15.3,47,0.00,,,0.00,422.28,VWS V14.01,2013-10-22 15:05:00,
2013-10-22 11:06:00,39.0,19.4,29.95,West,275,14.1,14.1,45,0.00,,,0.00,425.03,VWS V14.01,2013-10-22 15:06:00,
2013-10-22 11:08:00,40.2,20.4,29.94,West,279,14.1,14.8,45,0.00,,,0.00,432.66,VWS V14.01,2013-10-22 15:08:00,
2013-10-22 11:09:00,41.2,21.9,29.94,WNW,296,10.4,14.1,46,0.00,,,0.00,434.49,VWS V14.01,2013-10-22 15:09:00,
2013-10-22 11:12:00,41.4,22.3,29.94,West,259,10.7,10.7,46,0.00,,,0.00,434.49,VWS V14.01,2013-10-22 15:12:00,
2013-10-22 11:13:00,41.7,22.3,29.94,West,277,10.9,10.9,46,0.00,,,0.00,434.49,VWS V14.01,2013-10-22 15:13:00,
2013-10-22 11:14:00,40.9,21.8,29.94,West,276,10.0,12.3,46,0.00,,,0.00,434.19,VWS V14.01,2013-10-22 15:14:00,
2013-10-22 11:15:00,41.4,21.4,29.94,West,279,15.2,15.2,44,0.00,,,0.00,430.89,VWS V14.01,2013-10-22 15:15:00,
2013-10-22 11:17:00,39.8,19.6,29.95,WNW,288,9.5,9.5,44,0.00,,,0.00,434.98,VWS V14.01,2013-10-22 15:17:00,
2013-10-22 11:18:00,39.8,19.6,29.95,WNW,288,9.5,9.5,44,0.00,,,0.00,434.98,VWS V14.01,2013-10-22 15:18:00,
2013-10-22 11:19:00,40.3,20.6,29.94,WNW,288,13.5,14.6,45,0.00,,,0.00,434.74,VWS V14.01,2013-10-22 15:19:00,
2013-10-22 11:21:00,42.0,22.6,29.94,WSW,252,10.0,11.2,46,0.00,,,0.00,436.94,VWS V14.01,2013-10-22 15:21:00,
2013-10-22 11:22:00,41.7,21.7,29.94,WSW,253,9.7,10.5,45,0.00,,,0.00,441.82,VWS V14.01,2013-10-22 15:22:00,
2013-10-22 11:23:00,40.8,21.1,29.94,WNW,295,13.5,13.5,45,0.00,,,0.00,440.60,VWS V14.01,2013-10-22 15:23:00,
2013-10-22 11:24:00,40.6,20.2,29.94,West,268,13.1,13.5,44,0.00,,,0.00,439.99,VWS V14.01,2013-10-22 15:24:00,
2013-10-22 11:25:00,41.5,22.0,29.94,West,264,10.0,13.1,45,0.00,,,0.00,444.51,VWS V14.01,2013-10-22 15:25:00,
2013-10-22 11:26:00,40.9,20.2,29.94,WSW,256,13.8,13.8,43,0.00,,,0.00,443.77,VWS V14.01,2013-10-22 15:26:00,
2013-10-22 11:30:00,42.1,22.3,29.94,West,278,8.7,11.6,45,0.00,,,0.00,446.89,VWS V14.01,2013-10-22 15:30:00,
2013-10-22 11:31:00,41.2,20.3,29.94,West,271,12.8,13.3,43,0.00,,,0.00,451.59,VWS V14.01,2013-10-22 15:31:00,
2013-10-22 11:35:00,41.8,20.9,29.94,WSW,252,13.1,13.1,43,0.00,,,0.00,465.02,VWS V14.01,2013-10-22 15:35:00,
2013-10-22 11:36:00,43.4,23.0,29.94,WSW,253,10.0,13.1,44,0.00,,,0.00,463.80,VWS V14.01,2013-10-22 15:36:00,
2013-10-22 11:37:00,42.6,21.7,29.93,WNW,285,11.2,11.2,43,0.00,,,0.00,461.36,VWS V14.01,2013-10-22 15:37:00,
2013-10-22 11:38:00,41.3,19.7,29.94,West,262,11.7,11.7,42,0.00,,,0.00,466.73,VWS V14.01,2013-10-22 15:38:00,
2013-10-22 11:41:00,42.4,21.2,29.93,WSW,253,11.9,11.9,42,0.00,,,0.00,473.26,VWS V14.01,2013-10-22 15:41:00,
2013-10-22 11:42:00,41.9,18.9,29.94,West,277,14.0,14.0,39,0.00,,,0.00,475.09,VWS V14.01,2013-10-22 15:42:00,
2013-10-22 11:43:00,41.5,18.0,29.94,West,269,13.6,14.0,38,0.00,,,0.00,475.21,VWS V14.01,2013-10-22 15:43:00,
2013-10-22 11:44:00,42.8,20.1,29.94,WNW,294,13.6,14.8,40,0.00,,,0.00,480.89,VWS V14.01,2013-10-22 15:44:00,
2013-10-22 11:46:00,42.9,20.6,29.94,WSW,258,12.4,13.3,41,0.00,,,0.00,479.98,VWS V14.01,2013-10-22 15:46:00,
2013-10-22 11:47:00,42.9,20.5,29.93,West,270,11.9,12.4,41,0.00,,,0.00,487.91,VWS V14.01,2013-10-22 15:47:00,
2013-10-22 11:48:00,42.8,19.9,29.93,WNW,284,13.8,13.8,40,0.00,,,0.00,488.22,VWS V14.01,2013-10-22 15:48:00,
2013-10-22 11:50:00,43.6,21.6,29.95,West,273,9.7,12.3,41,0.00,,,0.00,487.97,VWS V14.01,2013-10-22 15:50:00,
2013-10-22 11:51:00,43.7,20.7,29.93,WNW,300,13.6,15.8,40,0.00,,,0.00,493.10,VWS V14.01,2013-10-22 15:51:00,
2013-10-22 11:52:00,42.2,18.8,29.94,West,272,14.6,14.6,38,0.00,,,0.00,492.80,VWS V14.01,2013-10-22 15:52:00,
2013-10-22 11:53:00,42.5,19.5,29.94,WNW,292,12.1,12.4,39,0.00,,,0.00,497.99,VWS V14.01,2013-10-22 15:53:00,
2013-10-22 11:55:00,42.9,19.7,29.93,West,267,14.6,16.7,39,0.00,,,0.00,466.85,VWS V14.01,2013-10-22 15:55:00,
2013-10-22 11:57:00,43.1,20.4,29.93,WSW,257,10.5,13.8,40,0.00,,,0.00,493.71,VWS V14.01,2013-10-22 15:57:00,
2013-10-22 11:58:00,41.9,18.3,29.94,West,269,15.0,15.2,38,0.00,,,0.00,361.84,VWS V14.01,2013-10-22 15:58:00,
2013-10-22 11:59:00,44.2,22.0,29.93,West,269,8.5,15.0,41,0.00,,,0.00,101.65,VWS V14.01,2013-10-22 15:59:00,
2013-10-22 12:01:00,45.5,23.4,29.93,West,265,8.5,11.4,41,0.00,,,0.00,51.10,VWS V14.01,2013-10-22 16:01:00,
2013-10-22 12:03:00,42.6,19.0,29.93,WNW,286,12.3,15.0,38,0.00,,,0.00,53.54,VWS V14.01,2013-10-22 16:03:00,
2013-10-22 12:04:00,42.6,18.9,29.93,WNW,287,14.0,14.0,38,0.00,,,0.00,60.56,VWS V14.01,2013-10-22 16:04:00,
2013-10-22 12:05:00,43.1,19.8,29.94,NW,317,17.2,17.2,39,0.00,,,0.00,68.50,VWS V14.01,2013-10-22 16:05:00,
2013-10-22 12:08:00,43.5,20.1,29.94,WNW,287,11.9,11.9,39,0.00,,,0.00,59.10,VWS V14.01,2013-10-22 16:08:00,
2013-10-22 12:09:00,43.0,19.0,29.94,WNW,285,12.8,12.8,38,0.00,,,0.00,58.42,VWS V14.01,2013-10-22 16:09:00,
2013-10-22 12:10:00,42.2,18.0,29.93,West,275,13.8,14.8,37,0.00,,,0.00,60.87,VWS V14.01,2013-10-22 16:10:00,
2013-10-22 12:13:00,43.2,19.6,29.93,WNW,288,14.0,14.0,38,0.00,,,0.00,60.99,VWS V14.01,2013-10-22 16:13:00,
2013-10-22 12:14:00,43.6,20.3,29.98,West,277,10.5,12.4,39,0.00,,,0.00,183.46,VWS V14.01,2013-10-22 16:14:00,
2013-10-22 12:16:00,42.7,18.8,29.93,West,280,14.6,14.6,38,0.00,,,0.00,480.59,VWS V14.01,2013-10-22 16:16:00,
2013-10-22 12:17:00,42.7,18.6,29.93,WNW,292,13.8,14.6,38,0.00,,,0.00,492.55,VWS V14.01,2013-10-22 16:17:00,
2013-10-22 12:20:00,43.2,19.8,29.94,West,275,11.9,11.9,39,0.00,,,0.00,507.75,VWS V14.01,2013-10-22 16:20:00,
2013-10-22 12:21:00,44.1,21.4,29.93,WNW,289,9.2,11.9,40,0.00,,,0.00,507.75,VWS V14.01,2013-10-22 16:21:00,
2013-10-22 12:22:00,43.5,19.3,29.92,WNW,287,9.3,14.3,37,0.00,,,0.00,451.59,VWS V14.01,2013-10-22 16:22:00,
2013-10-22 12:23:00,43.8,20.6,29.92,WNW,299,12.9,12.9,39,0.00,,,0.00,417.40,VWS V14.01,2013-10-22 16:23:00,
2013-10-22 12:25:00,42.2,17.3,29.92,West,279,11.6,11.6,36,0.00,,,0.00,319.72,VWS V14.01,2013-10-22 16:25:00,
2013-10-22 12:26:00,42.7,18.0,29.93,WNW,285,10.0,11.6,37,0.00,,,0.00,263.25,VWS V14.01,2013-10-22 16:26:00,
2013-10-22 12:27:00,44.1,21.1,29.94,WNW,290,6.6,7.6,40,0.00,,,0.00,301.40,VWS V14.01,2013-10-22 16:27:00,
2013-10-22 12:29:00,42.8,18.4,29.92,West,274,10.2,10.2,37,0.00,,,0.00,471.80,VWS V14.01,2013-10-22 16:29:00,
2013-10-22 12:30:00,44.6,21.7,29.93,West,275,9.2,9.2,40,0.00,,,0.00,476.01,VWS V14.01,2013-10-22 16:30:00,
2013-10-22 12:31:00,43.7,20.3,29.93,West,259,9.2,9.2,39,0.00,,,0.00,463.80,VWS V14.01,2013-10-22 16:31:00,
2013-10-22 12:32:00,44.0,19.9,29.93,NW,304,11.7,12.4,38,0.00,,,0.00,359.10,VWS V14.01,2013-10-22 16:32:00,
2013-10-22 12:34:00,44.2,20.2,29.93,NW,317,12.4,15.8,38,0.00,,,0.00,501.59,VWS V14.01,2013-10-22 16:34:00,
2013-10-22 12:36:00,44.1,20.5,29.93,WSW,251,11.2,13.8,39,0.00,,,0.00,568.50,VWS V14.01,2013-10-22 16:36:00,
2013-10-22 12:37:00,42.8,17.3,29.94,WNW,287,11.7,11.7,35,0.00,,,0.00,517.52,VWS V14.01,2013-10-22 16:37:00,
2013-10-22 12:38:00,44.6,20.4,29.93,West,281,10.7,11.7,38,0.00,,,0.00,537.06,VWS V14.01,2013-10-22 16:38:00,
2013-10-22 12:39:00,46.3,22.6,29.92,West,267,7.6,9.9,39,0.00,,,0.00,520.21,VWS V14.01,2013-10-22 16:39:00,
2013-10-22 12:41:00,42.2,15.6,29.93,West,277,12.4,12.4,34,0.00,,,0.00,507.75,VWS V14.01,2013-10-22 16:41:00,
2013-10-22 12:42:00,44.3,20.3,29.93,WNW,292,7.1,7.8,38,0.00,,,0.00,551.71,VWS V14.01,2013-10-22 16:42:00,
2013-10-22 12:43:00,45.3,20.5,29.92,West,266,10.7,10.7,37,0.00,,,0.00,492.61,VWS V14.01,2013-10-22 16:43:00,
2013-10-22 12:44:00,46.1,22.2,29.92,West,268,9.5,14.0,39,0.00,,,0.00,487.73,VWS V14.01,2013-10-22 16:44:00,
2013-10-22 12:45:00,43.3,17.1,29.92,West,267,10.4,11.2,34,0.00,,,0.00,576.37,VWS V14.01,2013-10-22 16:45:00,
2013-10-22 12:48:00,48.0,24.8,29.92,WSW,248,5.6,11.6,40,0.00,,,0.00,588.34,VWS V14.01,2013-10-22 16:48:00,
2013-10-22 12:49:00,47.7,23.8,29.92,West,260,9.5,9.5,39,0.00,,,0.00,589.99,VWS V14.01,2013-10-22 16:49:00,
2013-10-22 12:50:00,44.5,19.0,29.92,WNW,288,12.8,12.8,36,0.00,,,0.00,593.22,VWS V14.01,2013-10-22 16:50:00,
2013-10-22 12:52:00,43.3,16.0,29.91,NW,311,12.8,13.6,33,0.00,,,0.00,602.75,VWS V14.01,2013-10-22 16:52:00,
2013-10-22 12:53:00,46.6,22.3,29.91,West,260,5.6,5.6,38,0.00,,,0.00,600.55,VWS V14.01,2013-10-22 16:53:00,
2013-10-22 12:54:00,46.4,21.8,29.91,West,280,6.8,6.8,37,0.00,,,0.00,596.89,VWS V14.01,2013-10-22 16:54:00,
2013-10-22 12:55:00,46.4,21.4,29.91,WNW,297,8.3,8.3,37,0.00,,,0.00,561.48,VWS V14.01,2013-10-22 16:55:00,
2013-10-22 12:57:00,45.2,18.0,29.91,West,273,9.2,10.2,33,0.00,,,0.00,605.43,VWS V14.01,2013-10-22 16:57:00,
2013-10-22 12:58:00,43.4,16.3,29.91,WNW,302,10.4,11.6,33,0.00,,,0.00,573.99,VWS V14.01,2013-10-22 16:58:00,
2013-10-22 12:59:00,44.1,15.1,29.91,NW,310,11.9,11.9,31,0.00,,,0.00,485.53,VWS V14.01,2013-10-22 16:59:00,
2013-10-22 13:02:00,44.1,17.9,29.91,West,281,9.7,12.4,35,0.00,,,0.00,559.28,VWS V14.01,2013-10-22 17:02:00,
2013-10-22 13:03:00,46.6,21.8,29.91,NW,322,11.1,11.1,37,0.00,,,0.00,417.70,VWS V14.01,2013-10-22 17:03:00,
2013-10-22 13:04:00,45.2,19.1,29.90,NW,314,13.1,13.1,35,0.00,,,0.00,468.93,VWS V14.01,2013-10-22 17:04:00,
2013-10-22 13:05:00,45.8,20.3,29.91,NW,309,8.1,13.1,36,0.00,,,0.00,371.18,VWS V14.01,2013-10-22 17:05:00,
2013-10-22 13:06:00,44.6,17.9,29.92,WNW,287,9.0,9.0,34,0.00,,,0.00,422.16,VWS V14.01,2013-10-22 17:06:00,
2013-10-22 13:08:00,44.0,17.8,29.90,NW,320,10.4,10.4,35,0.00,,,0.00,355.74,VWS V14.01,2013-10-22 17:08:00,
2013-10-22 13:09:00,45.2,19.2,29.90,WNW,299,13.1,13.1,35,0.00,,,0.00,432.85,VWS V14.01,2013-10-22 17:09:00,
2013-10-22 13:11:00,45.4,18.7,29.91,WNW,287,12.3,12.3,34,0.00,,,0.00,413.00,VWS V14.01,2013-10-22 17:11:00,
2013-10-22 13:12:00,43.8,16.8,29.91,NW,309,15.2,15.2,33,0.00,,,0.00,339.26,VWS V14.01,2013-10-22 17:12:00,
2013-10-22 13:13:00,46.6,20.6,29.91,West,272,12.1,12.8,35,0.00,,,0.00,619.35,VWS V14.01,2013-10-22 17:13:00,
2013-10-22 13:14:00,45.0,17.5,29.92,WNW,294,9.7,12.1,33,0.00,,,0.00,547.74,VWS V14.01,2013-10-22 17:14:00,
2013-10-22 13:15:00,45.8,19.7,29.91,WNW,292,10.4,12.1,35,0.00,,,0.00,405.19,VWS V14.01,2013-10-22 17:15:00,
2013-10-22 13:17:00,45.6,20.1,29.91,WNW,292,9.3,9.3,36,0.00,,,0.00,470.82,VWS V14.01,2013-10-22 17:17:00,
2013-10-22 13:18:00,43.8,17.0,29.91,WNW,302,12.1,12.1,34,0.00,,,0.00,517.77,VWS V14.01,2013-10-22 17:18:00,
2013-10-22 13:19:00,47.2,22.6,29.91,WNW,289,9.9,9.9,38,0.00,,,0.00,526.25,VWS V14.01,2013-10-22 17:19:00,
2013-10-22 13:20:00,45.6,19.6,29.91,NW,318,8.7,9.9,35,0.00,,,0.00,542.25,VWS V14.01,2013-10-22 17:20:00,
2013-10-22 13:22:00,44.8,17.9,29.90,WNW,300,12.1,12.1,34,0.00,,,0.00,500.73,VWS V14.01,2013-10-22 17:22:00,
2013-10-22 13:23:00,44.7,17.6,29.90,West,278,9.7,9.7,33,0.00,,,0.00,536.45,VWS V14.01,2013-10-22 17:23:00,
2013-10-22 13:24:00,45.8,19.7,29.90,NW,313,10.2,10.2,35,0.00,,,0.00,475.70,VWS V14.01,2013-10-22 17:24:00,
2013-10-22 13:25:00,44.4,17.7,29.91,NNW,330,9.7,12.8,34,0.00,,,0.00,429.85,VWS V14.01,2013-10-22 17:25:00,
2013-10-22 13:28:00,44.6,18.5,29.91,NW,309,11.1,11.4,35,0.00,,,0.00,368.68,VWS V14.01,2013-10-22 17:28:00,
2013-10-22 13:29:00,45.7,19.6,29.91,West,277,11.1,11.1,35,0.00,,,0.00,406.72,VWS V14.01,2013-10-22 17:29:00,
2013-10-22 13:30:00,44.8,18.0,29.90,WNW,298,8.5,12.1,34,0.00,,,0.00,327.05,VWS V14.01,2013-10-22 17:30:00,
2013-10-22 13:31:00,44.7,18.1,29.91,NW,308,8.7,12.1,34,0.00,,,0.00,412.21,VWS V14.01,2013-10-22 17:31:00,
2013-10-22 13:34:00,45.9,20.2,29.90,NW,306,11.4,11.4,36,0.00,,,0.00,571.43,VWS V14.01,2013-10-22 17:34:00,
2013-10-22 13:35:00,46.0,18.5,29.89,NW,309,11.1,11.4,33,0.00,,,0.00,571.18,VWS V14.01,2013-10-22 17:35:00,
2013-10-22 13:36:00,45.1,18.0,29.89,WNW,302,11.6,11.6,33,0.00,,,0.00,568.32,VWS V14.01,2013-10-22 17:36:00,
2013-10-22 13:37:00,44.5,17.6,29.89,WNW,284,10.0,11.6,34,0.00,,,0.00,541.94,VWS V14.01,2013-10-22 17:37:00,
2013-10-22 13:40:00,43.9,15.3,29.89,WNW,283,11.4,13.1,31,0.00,,,0.00,583.21,VWS V14.01,2013-10-22 17:40:00,
2013-10-22 13:41:00,44.2,16.2,29.89,West,263,11.2,11.2,32,0.00,,,0.00,102.32,VWS V14.01,2013-10-22 17:41:00,
2013-10-22 13:43:00,44.3,17.9,29.90,West,275,12.9,12.9,34,0.00,,,0.00,448.54,VWS V14.01,2013-10-22 17:43:00,
2013-10-22 13:44:00,43.8,15.7,29.89,West,279,10.2,10.2,32,0.00,,,0.00,556.59,VWS V14.01,2013-10-22 17:44:00,
2013-10-22 13:45:00,46.0,18.5,29.89,WNW,287,7.1,10.2,33,0.00,,,0.00,573.38,VWS V14.01,2013-10-22 17:45:00,
2013-10-22 13:47:00,46.2,18.3,29.88,NNW,332,6.8,8.3,32,0.00,,,0.00,534.62,VWS V14.01,2013-10-22 17:47:00,
2013-10-22 13:49:00,45.8,18.2,29.89,WNW,289,6.6,6.6,33,0.00,,,0.00,565.45,VWS V14.01,2013-10-22 17:49:00,
2013-10-22 13:50:00,45.7,17.8,29.88,WNW,293,14.8,15.3,32,0.00,,,0.00,529.43,VWS V14.01,2013-10-22 17:50:00,
2013-10-22 13:52:00,46.0,20.2,29.88,WNW,297,9.2,9.2,35,0.00,,,0.00,543.41,VWS V14.01,2013-10-22 17:52:00,
2013-10-22 13:54:00,45.0,16.5,29.89,West,279,10.2,11.6,31,0.00,,,0.00,547.44,VWS V14.01,2013-10-22 17:54:00,
2013-10-22 13:55:00,44.0,15.5,29.88,WNW,284,9.3,10.0,31,0.00,,,0.00,532.17,VWS V14.01,2013-10-22 17:55:00,
2013-10-22 13:57:00,45.1,15.9,29.89,WSW,251,7.1,7.1,30,0.00,,,0.00,512.39,VWS V14.01,2013-10-22 17:57:00,
2013-10-22 14:00:00,45.3,14.9,29.88,NW,305,9.3,9.3,29,0.00,,,0.00,551.40,VWS V14.01,2013-10-22 18:00:00,
2013-10-22 14:03:00,45.2,15.0,29.88,WSW,246,7.6,7.6,29,0.00,,,0.00,549.27,VWS V14.01,2013-10-22 18:03:00,
2013-10-22 14:06:00,46.2,15.6,29.88,WNW,288,11.4,11.9,29,0.00,,,0.00,546.34,VWS V14.01,2013-10-22 18:06:00,
2013-10-22 14:07:00,47.8,18.5,29.88,West,277,8.3,11.9,31,0.00,,,0.00,544.14,VWS V14.01,2013-10-22 18:07:00,
2013-10-22 14:08:00,45.4,14.9,29.88,West,265,10.2,11.9,29,0.00,,,0.00,539.26,VWS V14.01,2013-10-22 18:08:00,
2013-10-22 14:12:00,47.0,18.6,29.88,WNW,301,9.9,12.4,32,0.00,,,0.00,421.80,VWS V14.01,2013-10-22 18:12:00,
2013-10-22 14:13:00,46.0,17.9,29.88,West,281,7.8,12.4,32,0.00,,,0.00,436.94,VWS V14.01,2013-10-22 18:13:00,
2013-10-22 14:14:00,45.8,16.0,29.88,West,276,10.2,12.4,30,0.00,,,0.00,339.26,VWS V14.01,2013-10-22 18:14:00,
2013-10-22 14:15:00,45.3,15.8,29.88,West,263,8.0,12.4,30,0.00,,,0.00,506.72,VWS V14.01,2013-10-22 18:15:00,
2013-10-22 14:17:00,48.1,19.8,29.88,West,264,5.1,12.4,32,0.00,,,0.00,544.38,VWS V14.01,2013-10-22 18:17:00,
2013-10-22 14:18:00,45.9,16.3,29.87,West,266,8.3,12.4,30,0.00,,,0.00,544.32,VWS V14.01,2013-10-22 18:18:00,
2013-10-22 14:19:00,45.9,14.8,29.88,West,265,11.7,12.4,28,0.00,,,0.00,544.99,VWS V14.01,2013-10-22 18:19:00,
2013-10-22 14:21:00,45.9,15.3,29.87,WNW,289,12.1,12.4,29,0.00,,,0.00,532.17,VWS V14.01,2013-10-22 18:21:00,
2013-10-22 14:23:00,46.7,16.9,29.88,West,269,7.3,12.4,30,0.00,,,0.00,536.45,VWS V14.01,2013-10-22 18:23:00,
2013-10-22 14:25:00,45.8,16.2,29.87,WNW,284,10.2,12.4,30,0.00,,,0.00,400.06,VWS V14.01,2013-10-22 18:25:00,
2013-10-22 14:26:00,46.2,16.3,29.87,WNW,293,11.2,12.4,30,0.00,,,0.00,508.91,VWS V14.01,2013-10-22 18:26:00,
2013-10-22 14:28:00,46.2,16.2,29.88,WSW,251,6.3,12.4,30,0.00,,,0.00,547.56,VWS V14.01,2013-10-22 18:28:00,
2013-10-22 14:29:00,45.8,14.8,29.88,West,270,6.8,12.4,28,0.00,,,0.00,549.88,VWS V14.01,2013-10-22 18:29:00,
2013-10-22 14:30:00,47.8,18.6,29.86,SW,231,8.7,12.4,31,0.00,,,0.00,547.44,VWS V14.01,2013-10-22 18:30:00,
2013-10-22 14:31:00,47.8,18.6,29.86,SW,231,8.7,12.4,31,0.00,,,0.00,547.44,VWS V14.01,2013-10-22 18:31:00,
2013-10-22 14:32:00,46.9,15.9,29.87,WSW,239,7.6,12.4,28,0.00,,,0.00,291.88,VWS V14.01,2013-10-22 18:32:00,
2013-10-22 14:35:00,46.8,17.2,29.88,WNW,288,6.3,12.4,30,0.00,,,0.00,584.43,VWS V14.01,2013-10-22 18:35:00,
2013-10-22 14:36:00,47.6,16.9,29.87,WNW,303,10.0,12.4,29,0.00,,,0.00,561.48,VWS V14.01,2013-10-22 18:36:00,
2013-10-22 14:37:00,45.7,13.5,29.88,WNW,300,8.3,12.4,27,0.00,,,0.00,545.91,VWS V14.01,2013-10-22 18:37:00,
2013-10-22 14:38:00,47.5,17.3,29.87,WNW,284,8.0,12.4,30,0.00,,,0.00,522.41,VWS V14.01,2013-10-22 18:38:00,
2013-10-22 14:41:00,45.8,14.3,29.87,West,272,8.0,12.4,28,0.00,,,0.00,281.87,VWS V14.01,2013-10-22 18:41:00,
2013-10-22 14:43:00,45.7,14.9,29.87,WSW,258,10.4,12.4,28,0.00,,,0.00,307.27,VWS V14.01,2013-10-22 18:43:00,
2013-10-22 14:44:00,45.6,16.1,29.87,West,268,8.5,12.4,30,0.00,,,0.00,305.07,VWS V14.01,2013-10-22 18:44:00,
2013-10-22 14:47:00,46.9,18.9,29.87,WSW,257,4.7,12.4,32,0.00,,,0.00,373.20,VWS V14.01,2013-10-22 18:47:00,
2013-10-22 14:49:00,45.8,15.5,29.87,West,261,6.6,12.4,29,0.00,,,0.00,302.38,VWS V14.01,2013-10-22 18:49:00,
2013-10-22 14:52:00,45.8,16.1,29.86,WSW,252,7.5,12.4,30,0.00,,,0.00,217.16,VWS V14.01,2013-10-22 18:52:00,
2013-10-22 14:53:00,46.7,17.8,29.86,WSW,240,5.7,12.4,31,0.00,,,0.00,238.52,VWS V14.01,2013-10-22 18:53:00,
2013-10-22 14:54:00,46.2,17.6,29.86,WSW,243,9.9,12.4,32,0.00,,,0.00,246.21,VWS V14.01,2013-10-22 18:54:00,
2013-10-22 14:55:00,46.6,17.6,29.87,WSW,249,8.0,12.4,31,0.00,,,0.00,459.46,VWS V14.01,2013-10-22 18:55:00,
2013-10-22 14:56:00,46.5,16.9,29.87,West,277,8.0,12.4,30,0.00,,,0.00,427.11,VWS V14.01,2013-10-22 18:56:00,
2013-10-22 14:58:00,47.6,17.6,29.86,West,276,8.8,12.4,30,0.00,,,0.00,612.76,VWS V14.01,2013-10-22 18:58:00,
2013-10-22 14:59:00,46.2,15.9,29.87,WNW,286,10.2,12.4,29,0.00,,,0.00,450.12,VWS V14.01,2013-10-22 18:59:00,
2013-10-22 15:00:00,48.7,17.6,29.87,WNW,297,6.8,12.4,29,0.00,,,0.00,490.35,VWS V14.01,2013-10-22 19:00:00,
2013-10-22 15:01:00,47.5,16.3,29.86,WNW,287,9.7,9.7,28,0.00,,,0.00,442.12,VWS V14.01,2013-10-22 19:01:00,
2013-10-22 15:02:00,47.5,16.3,29.86,WNW,287,9.7,9.7,28,0.00,,,0.00,442.12,VWS V14.01,2013-10-22 19:02:00,
2013-10-22 15:04:00,49.4,19.0,29.86,WSW,237,5.1,9.0,30,0.00,,,0.00,613.00,VWS V14.01,2013-10-22 19:04:00,
2013-10-22 15:05:00,46.8,14.5,29.87,WNW,285,9.2,9.2,27,0.00,,,0.00,519.96,VWS V14.01,2013-10-22 19:05:00,
2013-10-22 15:06:00,46.8,14.5,29.87,WNW,285,9.2,9.2,27,0.00,,,0.00,519.96,VWS V14.01,2013-10-22 19:06:00,
2013-10-22 15:07:00,46.2,13.1,29.87,WNW,285,11.7,11.7,26,0.00,,,0.00,229.06,VWS V14.01,2013-10-22 19:07:00,
2013-10-22 15:08:00,46.8,15.8,29.86,WNW,282,7.8,11.6,28,0.00,,,0.00,236.20,VWS V14.01,2013-10-22 19:08:00,
2013-10-22 15:09:00,47.2,16.7,29.86,West,268,10.4,10.4,29,0.00,,,0.00,527.59,VWS V14.01,2013-10-22 19:09:00,
2013-10-22 15:11:00,48.7,18.4,29.86,West,270,8.8,10.4,30,0.00,,,0.00,492.86,VWS V14.01,2013-10-22 19:11:00,
2013-10-22 15:15:00,50.0,21.3,29.86,West,264,7.6,9.7,32,0.00,,,0.00,498.96,VWS V14.01,2013-10-22 19:15:00,
2013-10-22 15:16:00,47.4,13.7,29.86,West,270,9.3,11.1,25,0.00,,,0.00,430.34,VWS V14.01,2013-10-22 19:16:00,
2013-10-22 15:20:00,47.6,17.0,29.87,WNW,294,7.8,7.8,29,0.00,,,0.00,418.01,VWS V14.01,2013-10-22 19:20:00,
2013-10-22 15:21:00,45.9,12.2,29.86,WSW,258,10.4,10.7,25,0.00,,,0.00,248.90,VWS V14.01,2013-10-22 19:21:00,
2013-10-22 15:22:00,47.2,16.3,29.86,WNW,292,8.8,10.4,29,0.00,,,0.00,261.11,VWS V14.01,2013-10-22 19:22:00,
2013-10-22 15:23:00,46.5,15.7,29.86,WNW,290,10.5,10.5,29,0.00,,,0.00,287.18,VWS V14.01,2013-10-22 19:23:00,
2013-10-22 15:26:00,46.9,14.8,29.86,West,268,4.4,6.8,27,0.00,,,0.00,293.83,VWS V14.01,2013-10-22 19:26:00,
2013-10-22 15:27:00,46.7,16.1,29.86,West,273,5.1,5.1,29,0.00,,,0.00,288.52,VWS V14.01,2013-10-22 19:27:00,
2013-10-22 15:28:00,47.3,17.4,29.85,NW,313,5.2,5.2,30,0.00,,,0.00,292.31,VWS V14.01,2013-10-22 19:28:00,
2013-10-22 15:29:00,47.0,16.5,29.85,WNW,284,5.7,5.7,29,0.00,,,0.00,305.07,VWS V14.01,2013-10-22 19:29:00,
2013-10-22 15:31:00,46.6,14.4,29.85,NW,315,7.6,7.6,27,0.00,,,0.00,275.76,VWS V14.01,2013-10-22 19:31:00,
2013-10-22 15:32:00,47.1,17.2,29.86,NW,305,6.1,6.8,30,0.00,,,0.00,256.23,VWS V14.01,2013-10-22 19:32:00,
2013-10-22 15:34:00,47.8,18.5,29.86,WSW,245,9.0,11.4,31,0.00,,,0.00,223.32,VWS V14.01,2013-10-22 19:34:00,
2013-10-22 15:35:00,46.8,15.8,29.86,West,281,9.7,9.7,28,0.00,,,0.00,216.18,VWS V14.01,2013-10-22 19:35:00,
2013-10-22 15:37:00,46.4,15.4,29.86,WNW,287,7.6,7.6,28,0.00,,,0.00,210.07,VWS V14.01,2013-10-22 19:37:00,
2013-10-22 15:38:00,46.3,15.5,29.86,NW,304,8.7,8.7,29,0.00,,,0.00,211.66,VWS V14.01,2013-10-22 19:38:00,
2013-10-22 15:39:00,46.5,15.9,29.86,WNW,300,6.6,12.8,29,0.00,,,0.00,218.13,VWS V14.01,2013-10-22 19:39:00,
2013-10-22 15:41:00,46.5,16.3,29.86,West,278,8.5,8.7,29,0.00,,,0.00,218.68,VWS V14.01,2013-10-22 19:41:00,
2013-10-22 15:42:00,46.6,14.4,29.86,WNW,295,9.0,9.0,27,0.00,,,0.00,222.65,VWS V14.01,2013-10-22 19:42:00,
2013-10-22 15:43:00,46.7,16.9,29.86,WNW,290,6.4,9.0,30,0.00,,,0.00,224.66,VWS V14.01,2013-10-22 19:43:00,
2013-10-22 15:44:00,46.5,15.8,29.86,NW,313,9.7,9.7,29,0.00,,,0.00,227.66,VWS V14.01,2013-10-22 19:44:00,
2013-10-22 15:46:00,46.6,16.1,29.86,WNW,298,9.0,9.0,29,0.00,,,0.00,229.37,VWS V14.01,2013-10-22 19:46:00,
2013-10-22 15:47:00,46.4,15.3,29.86,WNW,299,10.4,10.4,28,0.00,,,0.00,230.28,VWS V14.01,2013-10-22 19:47:00,
2013-10-22 15:48:00,46.2,16.3,29.86,WNW,303,10.0,10.4,30,0.00,,,0.00,229.37,VWS V14.01,2013-10-22 19:48:00,
2013-10-22 15:49:00,46.2,14.3,29.86,West,277,9.3,10.4,27,0.00,,,0.00,229.06,VWS V14.01,2013-10-22 19:49:00,
2013-10-22 15:50:00,46.6,16.6,29.86,WNW,296,9.2,9.3,30,0.00,,,0.00,229.37,VWS V14.01,2013-10-22 19:50:00,
2013-10-22 15:51:00,46.6,16.8,29.86,WNW,298,8.8,8.8,30,0.00,,,0.00,229.00,VWS V14.01,2013-10-22 19:51:00,
2013-10-22 15:53:00,46.6,16.2,29.86,North,351,10.0,12.1,29,0.00,,,0.00,233.94,VWS V14.01,2013-10-22 19:53:00,
2013-10-22 15:55:00,46.8,17.7,29.86,NW,313,5.7,7.1,31,0.00,,,0.00,231.81,VWS V14.01,2013-10-22 19:55:00,
2013-10-22 15:56:00,46.5,15.6,29.86,WNW,300,8.3,10.2,29,0.00,,,0.00,231.81,VWS V14.01,2013-10-22 19:56:00,
2013-10-22 15:57:00,46.3,15.8,29.85,WNW,288,7.8,8.3,29,0.00,,,0.00,231.81,VWS V14.01,2013-10-22 19:57:00,
2013-10-22 15:59:00,46.3,15.1,29.86,West,265,7.1,8.5,28,0.00,,,0.00,209.83,VWS V14.01,2013-10-22 19:59:00,
2013-10-22 16:01:00,46.8,16.5,29.86,WNW,294,4.7,6.4,29,0.00,,,0.00,182.23,VWS V14.01,2013-10-22 20:01:00,
2013-10-22 16:02:00,46.2,16.1,29.86,West,267,9.2,9.2,29,0.00,,,0.00,166.12,VWS V14.01,2013-10-22 20:02:00,
2013-10-22 16:03:00,46.3,15.5,29.86,West,260,9.3,9.3,29,0.00,,,0.00,157.33,VWS V14.01,2013-10-22 20:03:00,
2013-10-22 16:04:00,45.9,13.7,29.86,West,277,10.0,10.0,27,0.00,,,0.00,147.74,VWS V14.01,2013-10-22 20:04:00,
2013-10-22 16:06:00,45.9,14.2,29.87,West,262,11.1,11.1,27,0.00,,,0.00,146.83,VWS V14.01,2013-10-22 20:06:00,
2013-10-22 16:07:00,46.0,14.9,29.87,WSW,255,10.7,11.1,28,0.00,,,0.00,145.73,VWS V14.01,2013-10-22 20:07:00,
2013-10-22 16:10:00,46.0,15.9,29.86,WNW,287,7.6,9.2,29,0.00,,,0.00,139.74,VWS V14.01,2013-10-22 20:10:00,
2013-10-22 16:12:00,46.1,14.7,29.87,SW,236,4.7,6.9,28,0.00,,,0.00,137.79,VWS V14.01,2013-10-22 20:12:00,
2013-10-22 16:13:00,46.1,15.6,29.86,WNW,290,5.7,6.8,29,0.00,,,0.00,138.46,VWS V14.01,2013-10-22 20:13:00,
2013-10-22 16:16:00,46.0,16.5,29.85,NW,316,6.8,6.8,30,0.00,,,0.00,141.45,VWS V14.01,2013-10-22 20:16:00,
2013-10-22 16:17:00,46.1,16.7,29.85,NW,308,8.1,8.1,30,0.00,,,0.00,139.93,VWS V14.01,2013-10-22 20:17:00,
2013-10-22 16:18:00,46.0,16.6,29.85,WNW,290,6.6,8.1,30,0.00,,,0.00,139.01,VWS V14.01,2013-10-22 20:18:00,
2013-10-22 16:21:00,45.9,15.6,29.87,West,281,9.2,10.2,29,0.00,,,0.00,138.71,VWS V14.01,2013-10-22 20:21:00,
2013-10-22 16:23:00,46.0,16.7,29.87,WNW,282,5.9,7.8,31,0.00,,,0.00,136.57,VWS V14.01,2013-10-22 20:23:00,
2013-10-22 16:24:00,45.9,16.9,29.87,WNW,296,6.8,6.8,31,0.00,,,0.00,136.26,VWS V14.01,2013-10-22 20:24:00,
2013-10-22 16:26:00,46.2,17.5,29.87,West,270,9.3,9.3,31,0.00,,,0.00,128.02,VWS V14.01,2013-10-22 20:26:00,
2013-10-22 16:27:00,46.0,11.2,29.87,WNW,288,7.6,9.7,24,0.00,,,0.00,118.25,VWS V14.01,2013-10-22 20:27:00,
2013-10-22 16:29:00,46.0,16.5,29.87,West,274,8.0,8.3,30,0.00,,,0.00,111.54,VWS V14.01,2013-10-22 20:29:00,
2013-10-22 16:30:00,46.0,17.8,29.87,NNW,334,6.3,8.0,32,0.00,,,0.00,107.75,VWS V14.01,2013-10-22 20:30:00,
2013-10-22 16:31:00,45.8,12.0,29.87,WNW,286,7.1,8.0,25,0.00,,,0.00,104.52,VWS V14.01,2013-10-22 20:31:00,
2013-10-22 16:33:00,45.6,13.4,29.87,West,276,10.7,12.3,27,0.00,,,0.00,95.06,VWS V14.01,2013-10-22 20:33:00,
2013-10-22 16:34:00,45.6,13.4,29.87,West,276,10.7,12.3,27,0.00,,,0.00,95.06,VWS V14.01,2013-10-22 20:34:00,
2013-10-22 16:35:00,45.5,15.0,29.88,West,279,9.0,11.1,29,0.00,,,0.00,91.33,VWS V14.01,2013-10-22 20:35:00,
2013-10-22 16:36:00,45.5,14.4,29.88,WNW,292,9.5,9.5,28,0.00,,,0.00,90.17,VWS V14.01,2013-10-22 20:36:00,
2013-10-22 16:37:00,45.4,13.2,29.87,West,276,8.7,9.5,27,0.00,,,0.00,90.17,VWS V14.01,2013-10-22 20:37:00,
2013-10-22 16:39:00,45.5,17.5,29.88,WNW,283,5.1,6.3,32,0.00,,,0.00,83.88,VWS V14.01,2013-10-22 20:39:00,
2013-10-22 16:40:00,45.4,15.4,29.87,West,271,9.3,9.3,30,0.00,,,0.00,83.76,VWS V14.01,2013-10-22 20:40:00,
2013-10-22 16:41:00,45.4,15.2,29.87,WNW,294,9.5,9.5,29,0.00,,,0.00,84.19,VWS V14.01,2013-10-22 20:41:00,
2013-10-22 16:42:00,45.5,13.4,29.87,West,279,9.9,9.9,27,0.00,,,0.00,85.29,VWS V14.01,2013-10-22 20:42:00,
2013-10-22 16:43:00,45.3,15.8,29.87,West,272,6.3,8.3,30,0.00,,,0.00,87.73,VWS V14.01,2013-10-22 20:43:00,
2013-10-22 16:45:00,45.4,13.0,29.87,West,269,4.7,6.3,27,0.00,,,0.00,88.40,VWS V14.01,2013-10-22 20:45:00,
2013-10-22 16:46:00,45.4,17.3,29.87,WNW,292,5.4,6.4,32,0.00,,,0.00,86.69,VWS V14.01,2013-10-22 20:46:00,
2013-10-22 16:47:00,45.6,17.6,29.88,West,276,7.6,7.6,32,0.00,,,0.00,86.20,VWS V14.01,2013-10-22 20:47:00,
2013-10-22 16:49:00,45.3,17.8,29.87,WNW,285,8.7,8.7,33,0.00,,,0.00,79.43,VWS V14.01,2013-10-22 20:49:00,
2013-10-22 16:50:00,45.3,18.3,29.87,WNW,283,6.6,6.6,34,0.00,,,0.00,75.21,VWS V14.01,2013-10-22 20:50:00,
2013-10-22 16:51:00,45.3,16.7,29.88,West,277,7.3,7.3,31,0.00,,,0.00,71.61,VWS V14.01,2013-10-22 20:51:00,
2013-10-22 16:52:00,45.4,14.3,29.88,WNW,295,8.8,8.8,28,0.00,,,0.00,70.63,VWS V14.01,2013-10-22 20:52:00,
2013-10-22 16:54:00,45.4,14.1,29.87,WNW,292,8.3,8.3,28,0.00,,,0.00,65.75,VWS V14.01,2013-10-22 20:54:00,
2013-10-22 16:55:00,45.2,15.3,29.86,West,269,7.1,7.5,30,0.00,,,0.00,65.75,VWS V14.01,2013-10-22 20:55:00,
2013-10-22 16:57:00,45.3,14.1,29.87,WNW,297,8.8,8.8,28,0.00,,,0.00,64.77,VWS V14.01,2013-10-22 20:57:00,
2013-10-22 16:58:00,45.1,15.0,29.87,West,277,7.6,9.0,29,0.00,,,0.00,63.00,VWS V14.01,2013-10-22 20:58:00,
2013-10-22 17:01:00,45.1,14.9,29.88,WNW,292,7.5,7.5,29,0.00,,,0.00,56.84,VWS V14.01,2013-10-22 21:01:00,
2013-10-22 17:02:00,45.0,15.6,29.87,West,281,8.1,8.1,30,0.00,,,0.00,53.54,VWS V14.01,2013-10-22 21:02:00,
2013-10-22 17:03:00,45.0,11.0,29.87,West,274,7.1,8.1,25,0.00,,,0.00,51.10,VWS V14.01,2013-10-22 21:03:00,
2013-10-22 17:04:00,45.2,13.8,29.88,West,274,7.3,8.7,28,0.00,,,0.00,48.53,VWS V14.01,2013-10-22 21:04:00,
2013-10-22 17:05:00,45.1,14.1,29.88,West,266,9.5,9.5,28,0.00,,,0.00,48.35,VWS V14.01,2013-10-22 21:05:00,
2013-10-22 17:07:00,44.9,15.1,29.88,West,265,7.1,7.1,30,0.00,,,0.00,48.35,VWS V14.01,2013-10-22 21:07:00,
2013-10-22 17:08:00,45.0,14.6,29.87,WNW,294,9.2,9.2,29,0.00,,,0.00,45.91,VWS V14.01,2013-10-22 21:08:00,
2013-10-22 17:09:00,45.2,14.7,29.91,West,269,8.5,9.2,29,0.00,,,0.00,46.83,VWS V14.01,2013-10-22 21:09:00,
2013-10-22 17:11:00,45.0,15.8,29.87,West,269,7.8,9.5,30,0.00,,,0.00,45.24,VWS V14.01,2013-10-22 21:11:00,
2013-10-22 17:12:00,45.0,15.2,29.88,WNW,289,9.5,9.5,30,0.00,,,0.00,43.28,VWS V14.01,2013-10-22 21:12:00,
2013-10-22 17:14:00,44.8,15.0,29.88,WNW,285,6.4,9.5,30,0.00,,,0.00,40.60,VWS V14.01,2013-10-22 21:14:00,
2013-10-22 17:16:00,44.6,10.5,29.87,WSW,251,6.1,8.5,24,0.00,,,0.00,39.50,VWS V14.01,2013-10-22 21:16:00,
2013-10-22 17:17:00,44.9,13.5,29.88,West,265,7.1,8.1,28,0.00,,,0.00,34.92,VWS V14.01,2013-10-22 21:17:00,
2013-10-22 17:19:00,44.7,11.9,29.87,WSW,257,9.3,9.3,26,0.00,,,0.00,33.39,VWS V14.01,2013-10-22 21:19:00,
2013-10-22 17:20:00,44.7,12.5,29.88,West,263,6.3,8.3,27,0.00,,,0.00,33.46,VWS V14.01,2013-10-22 21:20:00,
2013-10-22 17:21:00,45.0,13.3,29.87,West,259,7.3,9.0,27,0.00,,,0.00,33.76,VWS V14.01,2013-10-22 21:21:00,
2013-10-22 17:23:00,44.7,14.9,29.87,West,262,5.9,8.1,30,0.00,,,0.00,32.48,VWS V14.01,2013-10-22 21:23:00,
2013-10-22 17:24:00,44.6,14.9,29.86,West,275,6.1,6.1,30,0.00,,,0.00,31.56,VWS V14.01,2013-10-22 21:24:00,
2013-10-22 17:26:00,44.4,16.7,29.88,West,278,5.7,7.1,32,0.00,,,0.00,26.68,VWS V14.01,2013-10-22 21:26:00,
2013-10-22 17:27:00,44.3,17.3,29.88,West,271,4.4,7.1,33,0.00,,,0.00,25.40,VWS V14.01,2013-10-22 21:27:00,
2013-10-22 17:28:00,44.4,18.0,29.87,WNW,282,4.2,4.4,34,0.00,,,0.00,24.73,VWS V14.01,2013-10-22 21:28:00,
2013-10-22 17:29:00,44.3,18.3,29.88,West,276,4.2,4.2,35,0.00,,,0.00,26.68,VWS V14.01,2013-10-22 21:29:00,
2013-10-22 17:30:00,44.2,17.8,29.88,WNW,298,6.4,6.4,34,0.00,,,0.00,29.12,VWS V14.01,2013-10-22 21:30:00,
2013-10-22 17:33:00,45.0,13.9,29.88,WNW,289,10.4,10.4,28,0.00,,,0.00,33.27,VWS V14.01,2013-10-22 21:33:00,
2013-10-22 17:35:00,44.6,15.2,29.88,WNW,287,7.8,9.2,30,0.00,,,0.00,30.77,VWS V14.01,2013-10-22 21:35:00,
2013-10-22 17:36:00,44.4,15.6,29.88,West,260,8.5,8.5,31,0.00,,,0.00,26.86,VWS V14.01,2013-10-22 21:36:00,
2013-10-22 17:39:00,44.3,13.5,29.88,West,264,9.9,9.9,28,0.00,,,0.00,21.49,VWS V14.01,2013-10-22 21:39:00,
2013-10-22 17:41:00,43.9,12.3,29.88,West,262,9.9,12.9,27,0.00,,,0.00,23.99,VWS V14.01,2013-10-22 21:41:00,
2013-10-22 17:42:00,44.0,13.6,29.87,West,266,10.5,10.5,29,0.00,,,0.00,24.91,VWS V14.01,2013-10-22 21:42:00,
2013-10-22 17:46:00,43.7,12.8,29.88,SW,233,10.5,10.5,28,0.00,,,0.00,24.24,VWS V14.01,2013-10-22 21:46:00,
2013-10-22 17:47:00,43.8,12.0,29.88,WSW,239,9.9,9.9,27,0.00,,,0.00,21.79,VWS V14.01,2013-10-22 21:47:00,
2013-10-22 17:48:00,43.8,12.9,29.88,SW,219,10.2,10.4,28,0.00,,,0.00,19.60,VWS V14.01,2013-10-22 21:48:00,
2013-10-22 17:50:00,43.8,12.0,29.87,WSW,237,13.5,13.5,27,0.00,,,0.00,18.80,VWS V14.01,2013-10-22 21:50:00,
2013-10-22 17:52:00,43.8,12.2,29.88,West,260,8.8,10.2,27,0.00,,,0.00,18.80,VWS V14.01,2013-10-22 21:52:00,
2013-10-22 17:53:00,43.5,13.9,29.88,West,263,10.2,10.2,30,0.00,,,0.00,18.86,VWS V14.01,2013-10-22 21:53:00,
2013-10-22 17:54:00,43.4,14.6,29.88,West,270,9.2,10.2,31,0.00,,,0.00,18.62,VWS V14.01,2013-10-22 21:54:00,
2013-10-22 17:56:00,43.2,13.3,29.89,NW,322,8.8,13.6,29,0.00,,,0.00,17.28,VWS V14.01,2013-10-22 21:56:00,
2013-10-22 17:58:00,43.5,9.4,29.88,WSW,241,4.7,10.5,24,0.00,,,0.00,16.91,VWS V14.01,2013-10-22 21:58:00,
2013-10-22 17:59:00,43.5,12.9,29.89,West,261,9.5,9.5,28,0.00,,,0.00,16.61,VWS V14.01,2013-10-22 21:59:00,
2013-10-22 18:00:00,43.4,13.1,29.88,West,267,9.9,9.9,29,0.00,,,0.00,15.38,VWS V14.01,2013-10-22 22:00:00,
2013-10-22 18:01:00,43.6,11.3,29.88,WSW,247,7.3,7.3,26,0.00,,,0.00,16.67,VWS V14.01,2013-10-22 22:01:00,
2013-10-22 18:04:00,43.4,14.9,29.89,West,265,5.9,7.3,31,0.00,,,0.00,14.47,VWS V14.01,2013-10-22 22:04:00,
2013-10-22 18:05:00,43.0,15.0,29.88,SW,229,3.2,7.3,32,0.00,,,0.00,13.98,VWS V14.01,2013-10-22 22:05:00,
2013-10-22 18:06:00,43.0,14.9,29.88,WSW,239,2.5,7.3,32,0.00,,,0.00,14.47,VWS V14.01,2013-10-22 22:06:00,
2013-10-22 18:07:00,42.8,15.8,29.88,West,263,5.4,7.3,33,0.00,,,0.00,14.71,VWS V14.01,2013-10-22 22:07:00,
2013-10-22 18:09:00,43.2,14.6,29.88,West,263,10.9,11.6,31,0.00,,,0.00,14.16,VWS V14.01,2013-10-22 22:09:00,
2013-10-22 18:10:00,42.6,14.1,29.89,SW,231,11.9,11.9,31,0.00,,,0.00,14.22,VWS V14.01,2013-10-22 22:10:00,
2013-10-22 18:11:00,42.3,15.5,29.88,WSW,242,8.1,11.9,33,0.00,,,0.00,14.47,VWS V14.01,2013-10-22 22:11:00,
2013-10-22 18:12:00,42.3,15.5,29.88,WSW,242,8.1,11.9,33,0.00,,,0.00,14.47,VWS V14.01,2013-10-22 22:12:00,
2013-10-22 18:15:00,42.2,16.4,29.92,WSW,241,9.0,11.9,35,0.00,,,0.00,14.90,VWS V14.01,2013-10-22 22:15:00,
2013-10-22 18:17:00,42.1,16.2,29.88,WSW,238,11.7,11.9,35,0.00,,,0.00,14.77,VWS V14.01,2013-10-22 22:17:00,
2013-10-22 18:18:00,42.0,16.9,29.88,WSW,248,6.9,11.9,36,0.00,,,0.00,14.47,VWS V14.01,2013-10-22 22:18:00,
2013-10-22 18:20:00,41.9,17.2,29.93,WSW,250,6.9,11.9,36,0.00,,,0.00,15.08,VWS V14.01,2013-10-22 22:20:00,
2013-10-22 18:22:00,41.9,16.9,29.89,West,262,7.8,11.9,36,0.00,,,0.00,12.03,VWS V14.01,2013-10-22 22:22:00,
2013-10-22 18:23:00,42.0,17.0,29.90,SW,236,8.7,11.9,36,0.00,,,0.00,12.64,VWS V14.01,2013-10-22 22:23:00,
2013-10-22 18:24:00,42.0,17.3,29.89,West,260,7.3,11.9,36,0.00,,,0.00,12.64,VWS V14.01,2013-10-22 22:24:00,
2013-10-22 18:26:00,41.5,17.5,29.89,WSW,237,10.5,11.9,38,0.00,,,0.00,7.63,VWS V14.01,2013-10-22 22:26:00,
2013-10-22 18:27:00,41.4,18.3,29.88,WNW,282,9.7,11.9,39,0.00,,,0.00,5.31,VWS V14.01,2013-10-22 22:27:00,
2013-10-22 18:30:00,41.1,18.4,29.90,West,274,9.5,12.3,40,0.00,,,0.00,4.40,VWS V14.01,2013-10-22 22:30:00,
2013-10-22 18:31:00,41.0,18.8,29.90,West,266,8.0,12.3,40,0.00,,,0.00,4.40,VWS V14.01,2013-10-22 22:31:00,
2013-10-22 18:32:00,40.8,19.6,29.89,WSW,256,5.9,12.3,42,0.00,,,0.00,3.72,VWS V14.01,2013-10-22 22:32:00,
2013-10-22 18:33:00,41.0,19.2,29.89,West,278,7.5,12.3,41,0.00,,,0.00,2.93,VWS V14.01,2013-10-22 22:33:00,
2013-10-22 18:35:00,41.0,19.0,29.89,West,267,6.3,12.3,41,0.00,,,0.00,1.95,VWS V14.01,2013-10-22 22:35:00,
2013-10-22 18:36:00,41.0,18.6,29.89,WNW,283,4.2,12.3,40,0.00,,,0.00,2.26,VWS V14.01,2013-10-22 22:36:00,
2013-10-22 18:38:00,40.7,19.8,29.89,West,267,7.1,12.3,43,0.00,,,0.00,2.01,VWS V14.01,2013-10-22 22:38:00,
2013-10-22 18:39:00,40.5,20.5,29.90,WSW,256,5.4,12.3,44,0.00,,,0.00,1.53,VWS V14.01,2013-10-22 22:39:00,
2013-10-22 18:42:00,40.6,20.5,29.89,WNW,285,6.9,12.3,44,0.00,,,0.00,1.77,VWS V14.01,2013-10-22 22:42:00,
2013-10-22 18:43:00,40.5,20.4,29.89,West,278,6.1,12.3,44,0.00,,,0.00,1.28,VWS V14.01,2013-10-22 22:43:00,
2013-10-22 18:45:00,40.8,19.8,29.90,West,265,8.1,12.3,43,0.00,,,0.00,0.24,VWS V14.01,2013-10-22 22:45:00,
2013-10-22 18:46:00,40.8,19.8,29.90,West,265,8.1,12.3,43,0.00,,,0.00,0.24,VWS V14.01,2013-10-22 22:46:00,
2013-10-22 18:47:00,40.7,19.9,29.90,WSW,256,5.4,12.3,43,0.00,,,0.00,0.92,VWS V14.01,2013-10-22 22:47:00,
2013-10-22 18:49:00,40.5,19.8,29.89,WSW,258,10.4,12.3,43,0.00,,,0.00,0.00,VWS V14.01,2013-10-22 22:49:00,
2013-10-22 18:50:00,39.7,20.1,29.89,SW,218,12.9,12.9,45,0.00,,,0.00,0.00,VWS V14.01,2013-10-22 22:50:00,
2013-10-22 18:51:00,39.5,21.0,29.90,WSW,242,13.6,13.6,47,0.00,,,0.00,0.12,VWS V14.01,2013-10-22 22:51:00,
2013-10-22 18:52:00,39.5,21.1,29.89,SW,230,10.7,13.6,47,0.00,,,0.00,0.06,VWS V14.01,2013-10-22 22:52:00,
2013-10-22 18:54:00,39.2,21.5,29.90,WSW,246,10.5,13.6,49,0.00,,,0.00,0.06,VWS V14.01,2013-10-22 22:54:00,
2013-10-22 18:55:00,39.0,22.2,29.90,SW,235,15.7,15.7,51,0.00,,,0.00,0.00,VWS V14.01,2013-10-22 22:55:00,
2013-10-22 18:56:00,39.0,22.5,29.90,SW,236,10.0,15.7,51,0.00,,,0.00,0.00,VWS V14.01,2013-10-22 22:56:00,
2013-10-22 18:58:00,38.7,23.2,29.90,SW,225,14.8,15.7,53,0.00,,,0.00,0.06,VWS V14.01,2013-10-22 22:58:00,
2013-10-22 18:59:00,38.5,23.7,29.89,WSW,247,8.8,15.7,55,0.00,,,0.00,0.00,VWS V14.01,2013-10-22 22:59:00,
2013-10-22 19:01:00,38.3,23.9,29.90,WSW,258,8.7,15.7,56,0.00,,,0.00,0.00,VWS V14.01,2013-10-22 23:01:00,
2013-10-22 19:02:00,38.3,24.1,29.89,SW,219,12.1,12.4,56,0.00,,,0.00,0.43,VWS V14.01,2013-10-22 23:02:00,
2013-10-22 19:05:00,38.1,24.7,29.90,SW,227,9.0,9.0,58,0.00,,,0.00,0.00,VWS V14.01,2013-10-22 23:05:00,
2013-10-22 19:06:00,37.9,25.4,29.91,SW,227,7.8,7.8,60,0.00,,,0.00,0.43,VWS V14.01,2013-10-22 23:06:00,
2013-10-22 19:07:00,37.8,25.3,29.90,SW,231,10.2,10.2,60,0.00,,,0.00,0.43,VWS V14.01,2013-10-22 23:07:00,
2013-10-22 19:09:00,37.7,26.1,29.91,WSW,245,13.1,13.1,63,0.00,,,0.00,0.12,VWS V14.01,2013-10-22 23:09:00,
2013-10-22 19:12:00,37.5,26.8,29.91,WSW,243,11.4,11.4,65,0.00,,,0.00,0.00,VWS V14.01,2013-10-22 23:12:00,
2013-10-22 19:13:00,37.5,27.2,29.90,SW,233,10.0,10.0,66,0.00,,,0.00,0.00,VWS V14.01,2013-10-22 23:13:00,
2013-10-22 19:14:00,37.4,27.3,29.91,WSW,239,11.1,11.4,66,0.00,,,0.00,0.00,VWS V14.01,2013-10-22 23:14:00,
2013-10-22 19:15:00,37.4,27.3,29.91,WSW,247,9.9,11.4,66,0.00,,,0.00,0.00,VWS V14.01,2013-10-22 23:15:00,
2013-10-22 19:18:00,37.2,27.6,29.92,West,270,10.2,12.1,68,0.00,,,0.00,0.12,VWS V14.01,2013-10-22 23:18:00,
2013-10-22 19:20:00,37.1,28.0,29.91,WSW,253,12.4,12.4,69,0.00,,,0.00,0.00,VWS V14.01,2013-10-22 23:20:00,
2013-10-22 19:21:00,37.0,28.1,29.91,WSW,244,9.5,12.4,70,0.00,,,0.00,0.00,VWS V14.01,2013-10-22 23:21:00,
2013-10-22 19:23:00,36.9,28.8,29.92,WSW,239,10.0,10.0,72,0.00,,,0.00,0.00,VWS V14.01,2013-10-22 23:23:00,
2013-10-22 19:24:00,36.9,28.8,29.92,WSW,239,10.0,10.0,72,0.00,,,0.00,0.00,VWS V14.01,2013-10-22 23:24:00,
2013-10-22 19:26:00,36.8,29.4,29.91,SW,227,7.1,7.5,74,0.00,,,0.00,0.00,VWS V14.01,2013-10-22 23:26:00,
2013-10-22 19:27:00,36.8,29.3,29.91,WSW,254,9.5,10.0,74,0.00,,,0.00,0.00,VWS V14.01,2013-10-22 23:27:00,
2013-10-22 19:28:00,36.7,29.5,29.91,West,263,9.5,10.0,75,0.00,,,0.00,0.00,VWS V14.01,2013-10-22 23:28:00,
2013-10-22 19:29:00,36.7,29.8,29.91,WSW,255,10.9,10.9,76,0.00,,,0.00,0.00,VWS V14.01,2013-10-22 23:29:00,
2013-10-22 19:31:00,36.5,29.9,29.91,WSW,254,9.7,9.7,76,0.00,,,0.00,0.43,VWS V14.01,2013-10-22 23:31:00,
2013-10-22 19:32:00,36.4,30.0,29.92,West,264,9.9,9.9,77,0.00,,,0.00,0.00,VWS V14.01,2013-10-22 23:32:00,
2013-10-22 19:33:00,36.3,30.2,29.92,West,263,11.4,11.4,78,0.00,,,0.00,0.00,VWS V14.01,2013-10-22 23:33:00,
2013-10-22 19:34:00,36.3,30.3,29.92,WSW,252,10.5,11.4,79,0.00,,,0.00,0.00,VWS V14.01,2013-10-22 23:34:00,
2013-10-22 19:37:00,36.0,30.9,29.96,WNW,285,10.0,10.0,81,0.00,,,0.00,0.00,VWS V14.01,2013-10-22 23:37:00,
2013-10-22 19:38:00,36.1,31.1,29.93,WSW,243,10.4,10.4,82,0.00,,,0.00,0.00,VWS V14.01,2013-10-22 23:38:00,
2013-10-22 19:39:00,36.1,31.2,29.92,West,262,11.4,11.4,82,0.00,,,0.00,0.00,VWS V14.01,2013-10-22 23:39:00,
2013-10-22 19:40:00,36.1,31.2,29.92,WSW,258,7.5,11.4,82,0.00,,,0.00,0.00,VWS V14.01,2013-10-22 23:40:00,
2013-10-22 19:43:00,35.9,31.6,29.91,WSW,237,10.0,10.0,84,0.00,,,0.00,0.12,VWS V14.01,2013-10-22 23:43:00,
2013-10-22 19:44:00,35.8,31.5,29.91,WSW,253,9.0,10.0,84,0.00,,,0.00,0.73,VWS V14.01,2013-10-22 23:44:00,
2013-10-22 19:45:00,35.8,31.5,29.92,West,260,10.5,10.5,84,0.00,,,0.00,0.00,VWS V14.01,2013-10-22 23:45:00,
2013-10-22 19:46:00,35.8,31.5,29.92,West,260,10.5,10.5,84,0.00,,,0.00,0.00,VWS V14.01,2013-10-22 23:46:00,
2013-10-22 19:49:00,35.7,32.3,29.92,SW,234,10.9,10.9,87,0.00,,,0.00,0.00,VWS V14.01,2013-10-22 23:49:00,
2013-10-22 19:50:00,35.6,32.2,29.92,WSW,243,8.7,10.9,87,0.00,,,0.00,0.00,VWS V14.01,2013-10-22 23:50:00,
2013-10-22 19:51:00,35.7,32.2,29.92,WSW,251,9.3,9.3,87,0.00,,,0.00,0.00,VWS V14.01,2013-10-22 23:51:00,
2013-10-22 19:53:00,35.4,32.3,29.92,WSW,256,10.2,10.2,88,0.00,,,0.00,0.00,VWS V14.01,2013-10-22 23:53:00,
2013-10-22 19:54:00,35.4,32.3,29.92,West,276,7.8,7.8,88,0.00,,,0.00,0.00,VWS V14.01,2013-10-22 23:54:00,
2013-10-22 19:55:00,35.3,32.2,29.93,WSW,248,8.8,10.4,88,0.00,,,0.00,0.00,VWS V14.01,2013-10-22 23:55:00,
2013-10-22 19:56:00,35.4,32.3,29.93,SW,233,6.9,10.4,88,0.00,,,0.00,0.00,VWS V14.01,2013-10-22 23:56:00,
2013-10-22 19:58:00,35.3,32.4,29.93,West,268,7.5,8.1,89,0.00,,,0.00,0.00,VWS V14.01,2013-10-22 23:58:00,
2013-10-22 19:59:00,35.3,32.5,29.92,WSW,239,8.3,8.3,89,0.00,,,0.00,0.00,VWS V14.01,2013-10-22 23:59:00,
2013-10-22 20:01:00,35.3,32.6,29.92,WSW,258,10.0,10.0,90,0.00,,,0.00,0.43,VWS V14.01,2013-10-23 00:01:00,
2013-10-22 20:02:00,35.2,32.6,29.92,WSW,248,6.1,10.7,90,0.00,,,0.00,0.00,VWS V14.01,2013-10-23 00:02:00,
2013-10-22 20:03:00,35.3,32.7,29.92,West,261,9.2,10.7,90,0.00,,,0.00,0.00,VWS V14.01,2013-10-23 00:03:00,
2013-10-22 20:04:00,35.3,32.8,29.92,WSW,251,7.5,9.2,91,0.00,,,0.00,0.00,VWS V14.01,2013-10-23 00:04:00,
2013-10-22 20:06:00,35.2,32.9,29.92,WSW,249,5.9,7.1,91,0.00,,,0.00,0.43,VWS V14.01,2013-10-23 00:06:00,
2013-10-22 20:09:00,35.3,33.2,29.91,West,280,7.1,7.8,92,0.00,,,0.00,0.00,VWS V14.01,2013-10-23 00:09:00,
2013-10-22 20:10:00,35.2,33.1,29.92,WSW,239,5.2,7.5,92,0.00,,,0.00,0.00,VWS V14.01,2013-10-23 00:10:00,
2013-10-22 20:11:00,35.2,33.1,29.92,WSW,251,4.9,5.2,92,0.00,,,0.00,0.00,VWS V14.01,2013-10-23 00:11:00,
2013-10-22 20:12:00,35.2,33.2,29.92,West,279,4.9,4.9,92,0.00,,,0.00,0.00,VWS V14.01,2013-10-23 00:12:00,
2013-10-22 20:15:00,35.2,33.5,29.92,West,261,3.9,5.1,93,0.00,,,0.00,0.73,VWS V14.01,2013-10-23 00:15:00,
2013-10-22 20:16:00,35.1,33.4,29.93,WSW,252,5.9,5.9,93,0.00,,,0.00,0.00,VWS V14.01,2013-10-23 00:16:00,
2013-10-22 20:17:00,35.2,33.5,29.93,West,268,7.1,7.1,93,0.00,,,0.00,0.00,VWS V14.01,2013-10-23 00:17:00,
2013-10-22 20:18:00,35.2,33.5,29.92,West,259,4.7,5.2,94,0.00,,,0.00,0.00,VWS V14.01,2013-10-23 00:18:00,
2013-10-22 20:21:00,35.1,33.6,29.93,WSW,245,6.3,6.3,94,0.00,,,0.00,0.00,VWS V14.01,2013-10-23 00:21:00,
2013-10-22 20:22:00,35.1,33.6,29.93,WSW,245,6.3,6.3,94,0.00,,,0.00,0.00,VWS V14.01,2013-10-23 00:22:00,
2013-10-22 20:23:00,35.1,33.5,29.92,WSW,248,5.4,7.5,94,0.00,,,0.00,0.00,VWS V14.01,2013-10-23 00:23:00,
2013-10-22 20:24:00,35.2,33.6,29.92,WSW,248,5.4,5.4,94,0.00,,,0.00,0.00,VWS V14.01,2013-10-23 00:24:00,
2013-10-22 20:27:00,35.1,33.6,29.92,WSW,242,3.5,6.6,94,0.00,,,0.00,0.00,VWS V14.01,2013-10-23 00:27:00,
2013-10-22 20:28:00,35.1,33.6,29.92,WSW,245,4.2,4.2,94,0.00,,,0.00,0.00,VWS V14.01,2013-10-23 00:28:00,
2013-10-22 20:29:00,35.1,33.7,29.92,SW,231,3.2,4.2,94,0.00,,,0.00,0.00,VWS V14.01,2013-10-23 00:29:00,
2013-10-22 20:30:00,35.1,33.8,29.97,WSW,243,4.9,4.9,95,0.00,,,0.00,0.00,VWS V14.01,2013-10-23 00:30:00,
2013-10-22 20:32:00,35.2,33.9,29.91,WSW,244,4.2,5.7,95,0.00,,,0.00,0.12,VWS V14.01,2013-10-23 00:32:00,
2013-10-22 20:33:00,35.1,33.8,29.92,WSW,258,5.9,5.9,95,0.00,,,0.00,0.00,VWS V14.01,2013-10-23 00:33:00,
2013-10-22 20:34:00,35.0,33.7,29.91,WSW,249,6.3,6.6,95,0.00,,,0.00,0.43,VWS V14.01,2013-10-23 00:34:00,
2013-10-22 20:36:00,35.1,33.8,29.96,WSW,254,5.7,5.7,95,0.00,,,0.00,0.00,VWS V14.01,2013-10-23 00:36:00,
2013-10-22 20:37:00,35.1,33.9,29.93,West,263,6.8,6.8,95,0.00,,,0.00,0.00,VWS V14.01,2013-10-23 00:37:00,
2013-10-22 20:38:00,35.2,33.9,29.92,West,262,4.4,6.8,95,0.00,,,0.00,0.00,VWS V14.01,2013-10-23 00:38:00,
2013-10-22 20:40:00,35.2,34.0,29.93,WSW,255,3.0,4.2,95,0.00,,,0.00,0.00,VWS V14.01,2013-10-23 00:40:00,
2013-10-22 20:41:00,35.1,34.0,29.93,West,260,4.7,4.7,96,0.00,,,0.00,0.43,VWS V14.01,2013-10-23 00:41:00,
2013-10-22 20:42:00,35.0,33.9,29.93,WSW,244,5.2,5.2,96,0.00,,,0.00,0.00,VWS V14.01,2013-10-23 00:42:00,
2013-10-22 20:44:00,35.1,34.0,29.93,West,270,2.8,3.2,96,0.00,,,0.00,0.43,VWS V14.01,2013-10-23 00:44:00,
2013-10-22 20:46:00,35.1,34.1,29.93,West,271,4.5,5.4,96,0.00,,,0.00,0.00,VWS V14.01,2013-10-23 00:46:00,
2013-10-22 20:48:00,35.1,34.1,29.92,WSW,246,3.5,3.5,96,0.00,,,0.00,0.00,VWS V14.01,2013-10-23 00:48:00,
2013-10-22 20:49:00,35.2,34.2,29.92,WSW,253,4.4,4.4,96,0.00,,,0.00,0.06,VWS V14.01,2013-10-23 00:49:00,
2013-10-22 20:50:00,35.1,34.1,29.92,WSW,244,3.4,4.4,96,0.00,,,0.00,0.00,VWS V14.01,2013-10-23 00:50:00,
2013-10-22 20:51:00,35.1,34.1,29.92,WSW,246,3.7,3.9,96,0.00,,,0.00,0.00,VWS V14.01,2013-10-23 00:51:00,
2013-10-22 20:53:00,35.1,34.2,29.92,WSW,258,4.7,4.7,96,0.00,,,0.00,0.00,VWS V14.01,2013-10-23 00:53:00,
2013-10-22 20:54:00,35.1,34.1,29.92,WSW,252,3.0,3.9,96,0.00,,,0.00,0.00,VWS V14.01,2013-10-23 00:54:00,
2013-10-22 20:57:00,35.1,34.2,29.92,WSW,253,5.7,5.7,96,0.00,,,0.00,0.00,VWS V14.01,2013-10-23 00:57:00,
2013-10-22 20:58:00,35.1,34.2,29.92,WSW,240,2.7,5.2,96,0.00,,,0.00,0.00,VWS V14.01,2013-10-23 00:58:00,
2013-10-22 21:01:00,35.1,34.2,29.92,SW,236,3.7,3.7,97,0.00,,,0.00,0.00,VWS V14.01,2013-10-23 01:01:00,
2013-10-22 21:02:00,35.1,34.2,29.92,WSW,246,4.9,4.9,97,0.00,,,0.00,0.00,VWS V14.01,2013-10-23 01:02:00,
2013-10-22 21:03:00,35.1,34.2,29.92,WSW,253,4.0,4.9,97,0.00,,,0.00,0.00,VWS V14.01,2013-10-23 01:03:00,
2013-10-22 21:04:00,35.1,34.3,29.92,West,259,3.5,3.7,97,0.00,,,0.00,0.00,VWS V14.01,2013-10-23 01:04:00,
2013-10-22 21:07:00,35.0,34.2,29.93,WSW,241,5.6,5.6,97,0.00,,,0.00,0.00,VWS V14.01,2013-10-23 01:07:00,
2013-10-22 21:08:00,35.1,34.3,29.91,WSW,256,4.2,5.6,97,0.00,,,0.00,0.00,VWS V14.01,2013-10-23 01:08:00,
2013-10-22 21:09:00,35.1,34.3,29.91,WSW,256,4.2,5.6,97,0.00,,,0.00,0.00,VWS V14.01,2013-10-23 01:09:00,
2013-10-22 21:10:00,35.1,34.3,29.92,WSW,246,4.4,4.4,97,0.00,,,0.00,0.00,VWS V14.01,2013-10-23 01:10:00,
2013-10-22 21:13:00,35.1,34.4,29.96,WSW,253,3.4,3.5,97,0.00,,,0.00,0.00,VWS V14.01,2013-10-23 01:13:00,
2013-10-22 21:14:00,35.0,34.3,29.92,WSW,249,4.9,4.9,97,0.00,,,0.00,0.00,VWS V14.01,2013-10-23 01:14:00,
2013-10-22 21:16:00,35.0,34.3,29.96,WSW,247,5.4,5.4,97,0.00,,,0.00,0.00,VWS V14.01,2013-10-23 01:16:00,
2013-10-22 21:17:00,35.1,34.4,29.92,WSW,255,4.9,5.4,97,0.00,,,0.00,0.00,VWS V14.01,2013-10-23 01:17:00,
2013-10-22 21:18:00,35.1,34.5,29.91,WSW,255,3.7,5.4,97,0.00,,,0.00,0.00,VWS V14.01,2013-10-23 01:18:00,
2013-10-22 21:20:00,35.1,34.4,29.92,WSW,254,3.0,4.2,97,0.00,,,0.00,0.00,VWS V14.01,2013-10-23 01:20:00,
2013-10-22 21:21:00,35.0,34.3,29.92,WSW,251,3.5,3.5,97,0.00,,,0.00,0.00,VWS V14.01,2013-10-23 01:21:00,
2013-10-22 21:23:00,35.0,34.3,29.91,West,270,3.9,3.9,97,0.00,,,0.00,0.00,VWS V14.01,2013-10-23 01:23:00,
2013-10-22 21:26:00,35.0,34.4,29.92,WSW,258,4.4,4.4,98,0.00,,,0.00,0.00,VWS V14.01,2013-10-23 01:26:00,
2013-10-22 21:27:00,35.1,34.5,29.92,West,259,3.0,5.1,98,0.00,,,0.00,0.00,VWS V14.01,2013-10-23 01:27:00,
2013-10-22 21:31:00,35.1,34.6,29.92,WNW,299,4.7,4.7,98,0.00,,,0.00,0.00,VWS V14.01,2013-10-23 01:31:00,
2013-10-22 21:32:00,35.1,34.6,29.91,West,278,3.7,4.7,98,0.00,,,0.00,0.00,VWS V14.01,2013-10-23 01:32:00,
2013-10-22 21:37:00,35.2,34.2,29.91,West,267,4.5,4.7,96,0.00,,,0.00,0.00,VWS V14.01,2013-10-23 01:37:00,
2013-10-22 21:38:00,35.2,34.7,29.92,WNW,297,3.9,3.9,98,0.00,,,0.00,0.00,VWS V14.01,2013-10-23 01:38:00,
2013-10-22 21:40:00,35.1,34.6,29.92,West,263,5.9,5.9,98,0.00,,,0.00,0.43,VWS V14.01,2013-10-23 01:40:00,
2013-10-22 21:42:00,35.1,34.5,29.92,WNW,286,4.0,5.9,98,0.00,,,0.00,0.00,VWS V14.01,2013-10-23 01:42:00,
2013-10-22 21:43:00,35.1,34.5,29.92,WNW,286,4.0,5.9,98,0.00,,,0.00,0.00,VWS V14.01,2013-10-23 01:43:00,
2013-10-22 21:47:00,35.0,34.4,29.92,WNW,296,5.9,5.9,98,0.00,,,0.00,0.00,VWS V14.01,2013-10-23 01:47:00,
2013-10-22 21:48:00,35.0,32.4,29.92,WNW,283,5.4,5.9,90,0.00,,,0.00,0.73,VWS V14.01,2013-10-23 01:48:00,
2013-10-22 21:49:00,35.0,34.4,29.92,West,276,3.9,5.4,97,0.00,,,0.00,0.00,VWS V14.01,2013-10-23 01:49:00,
2013-10-22 21:54:00,35.0,32.3,29.91,West,266,4.0,4.7,90,0.00,,,0.00,0.00,VWS V14.01,2013-10-23 01:54:00,
2013-10-22 21:55:00,34.9,34.2,29.92,WNW,286,3.2,4.7,97,0.00,,,0.00,0.00,VWS V14.01,2013-10-23 01:55:00,
2013-10-22 21:56:00,34.9,34.2,29.92,WNW,286,3.2,3.2,97,0.00,,,0.00,0.00,VWS V14.01,2013-10-23 01:56:00,
2013-10-22 21:58:00,34.9,34.2,29.92,WNW,286,4.9,4.9,97,0.00,,,0.00,0.00,VWS V14.01,2013-10-23 01:58:00,
2013-10-22 21:59:00,34.9,34.3,29.92,West,276,3.7,4.9,97,0.00,,,0.00,0.00,VWS V14.01,2013-10-23 01:59:00,
2013-10-22 22:00:00,34.9,34.3,29.92,West,276,3.7,4.9,97,0.00,,,0.00,0.00,VWS V14.01,2013-10-23 02:00:00,
2013-10-22 22:01:00,35.0,33.2,29.92,West,279,4.2,5.1,93,0.00,,,0.00,0.00,VWS V14.01,2013-10-23 02:01:00,
2013-10-22 22:02:00,35.0,34.3,29.92,West,274,5.2,5.2,97,0.00,,,0.00,0.00,VWS V14.01,2013-10-23 02:02:00,
2013-10-22 22:05:00,34.9,34.3,29.92,West,271,4.5,4.5,97,0.00,,,0.00,0.00,VWS V14.01,2013-10-23 02:05:00,
2013-10-22 22:06:00,35.0,34.3,29.91,West,269,3.2,5.2,97,0.00,,,0.00,0.00,VWS V14.01,2013-10-23 02:06:00,
2013-10-22 22:07:00,34.9,34.3,29.90,West,269,4.7,4.7,98,0.00,,,0.00,0.00,VWS V14.01,2013-10-23 02:07:00,
2013-10-22 22:09:00,34.9,34.3,29.92,West,268,3.4,3.5,98,0.00,,,0.00,0.00,VWS V14.01,2013-10-23 02:09:00,
2013-10-22 22:11:00,34.9,34.3,29.91,West,269,3.2,4.7,98,0.00,,,0.00,0.00,VWS V14.01,2013-10-23 02:11:00,
2013-10-22 22:12:00,35.0,34.4,29.91,West,274,3.7,3.7,98,0.00,,,0.00,0.00,VWS V14.01,2013-10-23 02:12:00,
2013-10-22 22:13:00,35.0,34.4,29.91,West,259,4.5,4.5,98,0.00,,,0.00,0.00,VWS V14.01,2013-10-23 02:13:00,
2013-10-22 22:14:00,35.0,34.5,29.91,West,281,3.7,5.1,98,0.00,,,0.00,0.00,VWS V14.01,2013-10-23 02:14:00,
2013-10-22 22:16:00,35.0,34.5,29.91,WNW,288,3.9,4.4,98,0.00,,,0.00,0.00,VWS V14.01,2013-10-23 02:16:00,
2013-10-22 22:18:00,35.0,34.5,29.92,WNW,287,2.5,3.4,98,0.00,,,0.00,0.00,VWS V14.01,2013-10-23 02:18:00,
2013-10-22 22:19:00,34.9,34.4,29.91,West,280,4.0,4.0,98,0.00,,,0.00,0.00,VWS V14.01,2013-10-23 02:19:00,
2013-10-22 22:20:00,35.0,34.5,29.91,WNW,283,4.0,4.0,98,0.00,,,0.00,0.00,VWS V14.01,2013-10-23 02:20:00,
2013-10-22 22:21:00,35.0,34.4,29.92,West,279,3.5,3.5,98,0.00,,,0.00,0.00,VWS V14.01,2013-10-23 02:21:00,
2013-10-22 22:23:00,35.0,34.4,29.92,West,277,3.9,3.9,98,0.00,,,0.00,0.00,VWS V14.01,2013-10-23 02:23:00,
2013-10-22 22:24:00,35.0,34.4,29.92,West,281,4.0,4.0,98,0.00,,,0.00,0.00,VWS V14.01,2013-10-23 02:24:00,
2013-10-22 22:25:00,35.0,34.4,29.92,West,281,4.0,4.0,98,0.00,,,0.00,0.00,VWS V14.01,2013-10-23 02:25:00,
2013-10-22 22:26:00,35.0,34.5,29.92,West,260,3.0,4.2,98,0.00,,,0.00,0.00,VWS V14.01,2013-10-23 02:26:00,
2013-10-22 22:27:00,35.0,34.4,29.92,WNW,283,2.5,3.9,98,0.00,,,0.00,0.00,VWS V14.01,2013-10-23 02:27:00,
2013-10-22 22:28:00,35.1,34.5,29.90,West,274,4.7,4.7,98,0.00,,,0.00,0.00,VWS V14.01,2013-10-23 02:28:00,
2013-10-22 22:30:00,35.0,34.4,29.92,West,262,4.4,4.4,98,0.00,,,0.00,0.73,VWS V14.01,2013-10-23 02:30:00,
2013-10-22 22:32:00,35.1,34.5,29.91,West,280,3.4,3.9,98,0.00,,,0.00,0.00,VWS V14.01,2013-10-23 02:32:00,
2013-10-22 22:33:00,35.1,34.5,29.91,West,275,4.5,4.5,98,0.00,,,0.00,0.00,VWS V14.01,2013-10-23 02:33:00,
2013-10-22 22:34:00,35.1,34.5,29.92,WNW,288,4.2,4.5,97,0.00,,,0.00,0.06,VWS V14.01,2013-10-23 02:34:00,
2013-10-22 22:36:00,35.1,34.4,29.92,WNW,282,2.7,3.7,97,0.00,,,0.00,0.06,VWS V14.01,2013-10-23 02:36:00,
2013-10-22 22:38:00,35.0,34.4,29.92,West,274,4.4,4.4,97,0.00,,,0.00,0.00,VWS V14.01,2013-10-23 02:38:00,
2013-10-22 22:39:00,35.1,34.4,29.91,WNW,289,3.5,3.5,97,0.00,,,0.00,0.00,VWS V14.01,2013-10-23 02:39:00,
2013-10-22 22:40:00,35.1,34.4,29.92,West,259,2.7,3.9,97,0.00,,,0.00,0.00,VWS V14.01,2013-10-23 02:40:00,
2013-10-22 22:41:00,34.9,34.3,29.92,West,274,4.0,4.0,97,0.00,,,0.00,0.00,VWS V14.01,2013-10-23 02:41:00,
2013-10-22 22:42:00,35.1,34.4,29.92,West,276,2.2,4.0,97,0.00,,,0.00,0.00,VWS V14.01,2013-10-23 02:42:00,
2013-10-22 22:43:00,35.1,34.4,29.92,West,266,2.3,2.3,97,0.00,,,0.00,0.00,VWS V14.01,2013-10-23 02:43:00,
2013-10-22 22:45:00,35.1,34.4,29.91,West,267,3.9,3.9,97,0.00,,,0.00,0.00,VWS V14.01,2013-10-23 02:45:00,
2013-10-22 22:46:00,35.1,34.4,29.91,West,280,3.2,3.9,97,0.00,,,0.00,0.00,VWS V14.01,2013-10-23 02:46:00,
2013-10-22 22:47:00,35.1,34.4,29.92,West,266,2.5,2.5,97,0.00,,,0.00,0.43,VWS V14.01,2013-10-23 02:47:00,
2013-10-22 22:49:00,35.1,34.5,29.91,West,264,1.6,3.4,97,0.00,,,0.00,0.00,VWS V14.01,2013-10-23 02:49:00,
2013-10-22 22:52:00,35.1,34.5,29.92,West,263,3.4,3.9,97,0.00,,,0.00,0.43,VWS V14.01,2013-10-23 02:52:00,
2013-10-22 22:53:00,35.1,34.5,29.92,West,263,3.4,3.9,97,0.00,,,0.00,0.43,VWS V14.01,2013-10-23 02:53:00,
2013-10-22 22:54:00,35.2,34.5,29.91,West,261,2.7,3.0,97,0.00,,,0.00,0.00,VWS V14.01,2013-10-23 02:54:00,
2013-10-22 22:55:00,35.1,34.4,29.92,West,269,2.2,2.7,97,0.00,,,0.00,0.00,VWS V14.01,2013-10-23 02:55:00,
2013-10-22 22:57:00,35.1,31.8,29.91,West,278,2.7,2.7,88,0.00,,,0.00,0.00,VWS V14.01,2013-10-23 02:57:00,
2013-10-22 22:59:00,35.1,34.4,29.91,West,259,0.0,1.8,97,0.00,,,0.00,0.00,VWS V14.01,2013-10-23 02:59:00,
2013-10-22 23:00:00,35.1,32.7,29.91,West,276,2.0,2.0,91,0.00,,,0.00,0.00,VWS V14.01,2013-10-23 03:00:00,
2013-10-22 23:01:00,35.2,34.5,29.91,West,271,0.0,1.0,97,0.00,,,0.00,0.00,VWS V14.01,2013-10-23 03:01:00,
2013-10-22 23:03:00,35.2,34.5,29.91,West,259,2.2,2.2,97,0.00,,,0.00,0.00,VWS V14.01,2013-10-23 03:03:00,
2013-10-22 23:04:00,35.2,34.6,29.91,West,277,1.5,1.5,97,0.00,,,0.00,0.43,VWS V14.01,2013-10-23 03:04:00,
2013-10-22 23:05:00,35.2,34.5,29.91,West,277,0.0,1.5,97,0.00,,,0.00,0.00,VWS V14.01,2013-10-23 03:05:00,
2013-10-22 23:06:00,35.1,34.4,29.91,West,268,1.6,1.6,97,0.00,,,0.00,0.00,VWS V14.01,2013-10-23 03:06:00,
2013-10-22 23:08:00,35.3,34.6,29.91,West,278,1.1,2.3,97,0.00,,,0.00,0.12,VWS V14.01,2013-10-23 03:08:00,
2013-10-22 23:11:00,35.2,34.6,29.91,WNW,289,2.0,2.0,98,0.00,,,0.00,0.00,VWS V14.01,2013-10-23 03:11:00,
2013-10-22 23:12:00,35.2,34.6,29.91,WNW,289,2.0,2.0,98,0.00,,,0.00,0.00,VWS V14.01,2013-10-23 03:12:00,
2013-10-22 23:14:00,35.1,34.5,29.91,WNW,292,2.3,2.3,98,0.00,,,0.00,0.00,VWS V14.01,2013-10-23 03:14:00,
2013-10-22 23:15:00,35.2,34.6,29.91,WNW,292,2.0,2.3,98,0.00,,,0.00,0.00,VWS V14.01,2013-10-23 03:15:00,
2013-10-22 23:17:00,35.3,34.8,29.91,WNW,290,0.0,0.0,98,0.00,,,0.00,0.00,VWS V14.01,2013-10-23 03:17:00,
2013-10-22 23:19:00,35.2,34.7,29.91,West,280,0.0,0.0,98,0.00,,,0.00,0.00,VWS V14.01,2013-10-23 03:19:00,
2013-10-22 23:20:00,35.3,34.8,29.92,West,280,1.8,1.8,98,0.00,,,0.00,0.43,VWS V14.01,2013-10-23 03:20:00,
2013-10-22 23:22:00,35.3,34.8,29.91,West,280,2.3,2.7,98,0.00,,,0.00,0.00,VWS V14.01,2013-10-23 03:22:00,
2013-10-22 23:24:00,35.2,34.6,29.91,West,276,1.5,2.3,98,0.00,,,0.00,0.00,VWS V14.01,2013-10-23 03:24:00,
2013-10-22 23:25:00,35.2,34.6,29.90,West,274,2.3,2.7,98,0.00,,,0.00,0.00,VWS V14.01,2013-10-23 03:25:00,
2013-10-22 23:26:00,35.3,34.7,29.91,West,265,2.3,2.3,98,0.00,,,0.00,0.00,VWS V14.01,2013-10-23 03:26:00,
2013-10-22 23:27:00,35.3,34.7,29.91,West,261,1.6,2.3,98,0.00,,,0.00,0.00,VWS V14.01,2013-10-23 03:27:00,
2013-10-22 23:29:00,35.3,34.7,29.91,West,265,1.6,2.2,98,0.00,,,0.00,0.00,VWS V14.01,2013-10-23 03:29:00,
2013-10-22 23:31:00,35.3,34.7,29.90,West,261,2.0,2.2,98,0.00,,,0.00,0.00,VWS V14.01,2013-10-23 03:31:00,
2013-10-22 23:32:00,35.3,34.7,29.90,WSW,245,2.5,2.5,97,0.00,,,0.00,0.00,VWS V14.01,2013-10-23 03:32:00,
2013-10-22 23:33:00,35.3,34.7,29.90,WSW,258,0.0,2.5,98,0.00,,,0.00,0.43,VWS V14.01,2013-10-23 03:33:00,
2013-10-22 23:34:00,35.2,34.6,29.89,WSW,258,0.0,0.0,97,0.00,,,0.00,0.00,VWS V14.01,2013-10-23 03:34:00,
2013-10-22 23:36:00,35.3,34.7,29.89,WSW,245,0.0,0.0,98,0.00,,,0.00,0.00,VWS V14.01,2013-10-23 03:36:00,
2013-10-22 23:38:00,35.3,34.8,29.90,WSW,245,0.0,1.5,98,0.00,,,0.00,0.43,VWS V14.01,2013-10-23 03:38:00,
2013-10-22 23:39:00,35.4,34.8,29.92,WSW,238,0.0,0.0,98,0.00,,,0.00,0.43,VWS V14.01,2013-10-23 03:39:00,
2013-10-22 23:40:00,35.3,34.7,29.91,WSW,247,2.3,2.3,98,0.00,,,0.00,0.00,VWS V14.01,2013-10-23 03:40:00,
2013-10-22 23:41:00,35.3,34.7,29.91,West,262,1.3,2.3,98,0.00,,,0.00,0.00,VWS V14.01,2013-10-23 03:41:00,
2013-10-22 23:43:00,35.4,34.8,29.90,WSW,246,1.3,2.8,98,0.00,,,0.00,0.00,VWS V14.01,2013-10-23 03:43:00,
2013-10-22 23:45:00,35.2,34.7,29.90,WSW,238,2.8,2.8,98,0.00,,,0.00,0.00,VWS V14.01,2013-10-23 03:45:00,
2013-10-22 23:46:00,35.3,34.7,29.90,WSW,248,2.8,2.8,98,0.00,,,0.00,0.00,VWS V14.01,2013-10-23 03:46:00,
2013-10-22 23:48:00,35.3,34.8,29.91,WSW,248,2.7,3.2,98,0.00,,,0.00,0.00,VWS V14.01,2013-10-23 03:48:00,
2013-10-22 23:49:00,35.3,34.8,29.90,West,261,2.3,2.8,98,0.00,,,0.00,0.43,VWS V14.01,2013-10-23 03:49:00,
2013-10-22 23:50:00,35.4,34.8,29.90,WSW,258,2.5,2.5,98,0.00,,,0.00,0.00,VWS V14.01,2013-10-23 03:50:00,
2013-10-22 23:51:00,35.3,34.7,29.89,WSW,253,2.2,2.5,98,0.00,,,0.00,0.00,VWS V14.01,2013-10-23 03:51:00,
2013-10-22 23:54:00,35.3,34.7,29.90,West,265,3.2,3.2,98,0.00,,,0.00,0.43,VWS V14.01,2013-10-23 03:54:00,
2013-10-22 23:57:00,35.2,34.7,29.90,WNW,295,2.7,2.7,98,0.00,,,0.00,0.00,VWS V14.01,2013-10-23 03:57:00,
2013-10-22 23:58:00,35.2,34.7,29.89,WNW,283,2.8,2.8,98,0.00,,,0.00,0.00,VWS V14.01,2013-10-23 03:58:00,
2013-10-22 23:59:00,35.2,34.7,29.89,West,276,2.7,2.7,98,0.00,,,0.00,0.00,VWS V14.01,2013-10-23 03:59:00,